DLH400 KJFK-EDDF
Flight info
| Callsign | DLH400 |
|---|---|
| Flight time | 7h 6m |
| Altitude | 37000 |
| Route | MERIT DCT HFD DCT PUT DCT WITCH DCT ALLEX N565B TUDEP/M083F380 DCT 52N050W 53N040W 54N030W 55N020W DCT RESNO DCT NETKI/N0475F390 DCT BOFUM Q37 MALUD UL975 WAL M16 DOLAS DCT NAVPI DCT SOGPO DCT DIXAT DIXAT1A |
| Aircraft | A346/H-SDE2E3FGHIJ3J4J5M1RWXY/LB1D1 |
Departure
| Time | 2026-05-06 08:54 |
|---|---|
| Airport | John F. Kennedy International Airport (KJFK) |
Arrival
| Time | 2026-05-06 16:01 |
|---|---|
| Airport | Frankfurt Main Airport (EDDF) |
| Time | Latitude | Longitude | Altitude | Speed | Heading |
|---|---|---|---|---|---|
| 2026-05-06 08:24 | 40.64077 | -73.78097 | 29 ft | 0 kts | 239° |
| 2026-05-06 08:39 | 40.64078 | -73.78094 | 29 ft | 1 kts | 239° |
| 2026-05-06 08:39 | 40.64086 | -73.78077 | 28 ft | 2 kts | 239° |
| 2026-05-06 08:39 | 40.64096 | -73.78059 | 27 ft | 3 kts | 222° |
| 2026-05-06 08:39 | 40.64109 | -73.78047 | 26 ft | 3 kts | 198° |
| 2026-05-06 08:40 | 40.64125 | -73.78044 | 27 ft | 3 kts | 175° |
| 2026-05-06 08:40 | 40.64143 | -73.78049 | 26 ft | 3 kts | 160° |
| 2026-05-06 08:40 | 40.64162 | -73.78059 | 27 ft | 3 kts | 153° |
| 2026-05-06 08:40 | 40.64178 | -73.78071 | 28 ft | 2 kts | 151° |
| 2026-05-06 08:41 | 40.64184 | -73.78075 | 26 ft | 0 kts | 151° |
| 2026-05-06 08:41 | 40.64185 | -73.78075 | 26 ft | 0 kts | 151° |
| 2026-05-06 08:44 | 40.64184 | -73.78075 | 26 ft | 0 kts | 151° |
| 2026-05-06 08:44 | 40.64180 | -73.78072 | 26 ft | 1 kts | 151° |
| 2026-05-06 08:45 | 40.64164 | -73.78060 | 27 ft | 5 kts | 151° |
| 2026-05-06 08:45 | 40.64124 | -73.78031 | 28 ft | 9 kts | 151° |
| 2026-05-06 08:45 | 40.64056 | -73.77981 | 29 ft | 13 kts | 151° |
| 2026-05-06 08:45 | 40.63966 | -73.77946 | 29 ft | 14 kts | 172° |
| 2026-05-06 08:46 | 40.63861 | -73.77928 | 29 ft | 16 kts | 172° |
| 2026-05-06 08:46 | 40.63746 | -73.77909 | 29 ft | 17 kts | 173° |
| 2026-05-06 08:46 | 40.63656 | -73.77895 | 29 ft | 11 kts | 173° |
| 2026-05-06 08:46 | 40.63594 | -73.77881 | 29 ft | 9 kts | 155° |
| 2026-05-06 08:47 | 40.63544 | -73.77813 | 29 ft | 12 kts | 117° |
| 2026-05-06 08:47 | 40.63516 | -73.77742 | 29 ft | 7 kts | 118° |
| 2026-05-06 08:47 | 40.63527 | -73.77693 | 29 ft | 7 kts | 37° |
| 2026-05-06 08:47 | 40.63581 | -73.77650 | 28 ft | 11 kts | 30° |
| 2026-05-06 08:48 | 40.63653 | -73.77594 | 28 ft | 13 kts | 30° |
| 2026-05-06 08:48 | 40.63740 | -73.77526 | 28 ft | 15 kts | 31° |
| 2026-05-06 08:48 | 40.63838 | -73.77449 | 28 ft | 17 kts | 31° |
| 2026-05-06 08:48 | 40.63947 | -73.77364 | 29 ft | 19 kts | 31° |
| 2026-05-06 08:49 | 40.64070 | -73.77268 | 29 ft | 21 kts | 31° |
| 2026-05-06 08:49 | 40.64191 | -73.77173 | 29 ft | 17 kts | 31° |
| 2026-05-06 08:49 | 40.64296 | -73.77090 | 29 ft | 15 kts | 31° |
| 2026-05-06 08:49 | 40.64371 | -73.77031 | 29 ft | 11 kts | 31° |
| 2026-05-06 08:50 | 40.64451 | -73.76992 | 28 ft | 14 kts | 6° |
| 2026-05-06 08:50 | 40.64547 | -73.76958 | 28 ft | 15 kts | 31° |
| 2026-05-06 08:50 | 40.64646 | -73.76881 | 28 ft | 17 kts | 29° |
| 2026-05-06 08:50 | 40.64755 | -73.76797 | 29 ft | 19 kts | 32° |
| 2026-05-06 08:51 | 40.64873 | -73.76702 | 30 ft | 21 kts | 31° |
| 2026-05-06 08:51 | 40.65002 | -73.76600 | 29 ft | 19 kts | 30° |
| 2026-05-06 08:51 | 40.65078 | -73.76541 | 30 ft | 10 kts | 34° |
| 2026-05-06 08:51 | 40.65093 | -73.76464 | 30 ft | 7 kts | 115° |
| 2026-05-06 08:52 | 40.65070 | -73.76405 | 31 ft | 8 kts | 120° |
| 2026-05-06 08:52 | 40.65034 | -73.76357 | 31 ft | 8 kts | 183° |
| 2026-05-06 08:52 | 40.64974 | -73.76394 | 31 ft | 7 kts | 210° |
| 2026-05-06 08:52 | 40.64963 | -73.76402 | 30 ft | 0 kts | 210° |
| 2026-05-06 08:53 | 40.64905 | -73.76447 | 30 ft | 33 kts | 211° |
| 2026-05-06 08:53 | 40.64528 | -73.76742 | 28 ft | 91 kts | 210° |
| 2026-05-06 08:54 | 40.63830 | -73.77288 | 29 ft | 141 kts | 210° |
| 2026-05-06 08:54 | 40.62866 | -73.78044 | 85 ft | 176 kts | 208° |
| 2026-05-06 08:54 | 40.61788 | -73.78881 | 555 ft | 182 kts | 210° |
| 2026-05-06 08:54 | 40.60725 | -73.79795 | 1256 ft | 180 kts | 214° |
| 2026-05-06 08:55 | 40.59699 | -73.80671 | 2081 ft | 177 kts | 215° |
| 2026-05-06 08:55 | 40.58607 | -73.81539 | 2441 ft | 192 kts | 214° |
| 2026-05-06 08:55 | 40.57416 | -73.82484 | 2788 ft | 208 kts | 214° |
| 2026-05-06 08:55 | 40.56134 | -73.83514 | 3181 ft | 223 kts | 214° |
| 2026-05-06 08:56 | 40.54809 | -73.84593 | 3733 ft | 230 kts | 213° |
| 2026-05-06 08:56 | 40.53285 | -73.85327 | 4382 ft | 240 kts | 188° |
| 2026-05-06 08:56 | 40.51662 | -73.84939 | 5079 ft | 256 kts | 160° |
| 2026-05-06 08:56 | 40.50210 | -73.83370 | 5794 ft | 274 kts | 131° |
| 2026-05-06 08:57 | 40.49454 | -73.81018 | 6502 ft | 291 kts | 103° |
| 2026-05-06 08:57 | 40.49558 | -73.78315 | 7199 ft | 304 kts | 76° |
| 2026-05-06 08:57 | 40.50545 | -73.75818 | 7863 ft | 316 kts | 50° |
| 2026-05-06 08:57 | 40.52186 | -73.73863 | 8536 ft | 321 kts | 36° |
| 2026-05-06 08:58 | 40.54006 | -73.72121 | 9251 ft | 327 kts | 34° |
| 2026-05-06 08:58 | 40.55860 | -73.70411 | 9971 ft | 332 kts | 35° |
| 2026-05-06 08:58 | 40.57710 | -73.68538 | 10556 ft | 342 kts | 37° |
| 2026-05-06 08:58 | 40.59624 | -73.66520 | 10936 ft | 359 kts | 38° |
| 2026-05-06 08:59 | 40.61612 | -73.64410 | 11250 ft | 377 kts | 38° |
| 2026-05-06 08:59 | 40.63706 | -73.62195 | 11571 ft | 394 kts | 38° |
| 2026-05-06 08:59 | 40.65898 | -73.59886 | 11891 ft | 412 kts | 38° |
| 2026-05-06 08:59 | 40.68184 | -73.57481 | 12272 ft | 427 kts | 38° |
| 2026-05-06 09:00 | 40.70525 | -73.55020 | 12924 ft | 433 kts | 38° |
| 2026-05-06 09:00 | 40.72887 | -73.52536 | 13709 ft | 436 kts | 38° |
| 2026-05-06 09:00 | 40.75269 | -73.50028 | 14396 ft | 439 kts | 37° |
| 2026-05-06 09:00 | 40.77660 | -73.47502 | 15090 ft | 442 kts | 37° |
| 2026-05-06 09:01 | 40.80069 | -73.44956 | 15762 ft | 445 kts | 37° |
| 2026-05-06 09:01 | 40.82492 | -73.42395 | 16445 ft | 448 kts | 36° |
| 2026-05-06 09:01 | 40.84932 | -73.39818 | 17132 ft | 450 kts | 36° |
| 2026-05-06 09:01 | 40.87387 | -73.37224 | 17809 ft | 453 kts | 35° |
| 2026-05-06 09:02 | 40.89860 | -73.34608 | 18452 ft | 456 kts | 35° |
| 2026-05-06 09:02 | 40.92346 | -73.31979 | 19024 ft | 459 kts | 35° |
| 2026-05-06 09:02 | 40.94852 | -73.29327 | 19565 ft | 463 kts | 35° |
| 2026-05-06 09:02 | 40.97338 | -73.26691 | 20148 ft | 466 kts | 35° |
| 2026-05-06 09:03 | 40.99919 | -73.23952 | 20708 ft | 470 kts | 35° |
| 2026-05-06 09:03 | 41.02470 | -73.21241 | 21239 ft | 474 kts | 35° |
| 2026-05-06 09:03 | 41.05052 | -73.18492 | 21757 ft | 477 kts | 35° |
| 2026-05-06 09:03 | 41.07651 | -73.15723 | 22260 ft | 481 kts | 35° |
| 2026-05-06 09:04 | 41.10269 | -73.12929 | 22749 ft | 485 kts | 35° |
| 2026-05-06 09:04 | 41.12904 | -73.10115 | 23257 ft | 488 kts | 36° |
| 2026-05-06 09:04 | 41.15525 | -73.07313 | 23728 ft | 492 kts | 36° |
| 2026-05-06 09:04 | 41.18196 | -73.04451 | 24134 ft | 495 kts | 36° |
| 2026-05-06 09:05 | 41.20888 | -73.01561 | 24565 ft | 499 kts | 36° |
| 2026-05-06 09:05 | 41.23594 | -72.98652 | 25025 ft | 502 kts | 36° |
| 2026-05-06 09:05 | 41.26316 | -72.95725 | 25482 ft | 505 kts | 36° |
| 2026-05-06 09:05 | 41.29050 | -72.92783 | 25955 ft | 506 kts | 36° |
| 2026-05-06 09:06 | 41.31787 | -72.89836 | 26400 ft | 507 kts | 35° |
| 2026-05-06 09:06 | 41.34539 | -72.86869 | 26858 ft | 511 kts | 35° |
| 2026-05-06 09:06 | 41.37315 | -72.83875 | 27291 ft | 514 kts | 35° |
| 2026-05-06 09:06 | 41.40102 | -72.80865 | 27732 ft | 518 kts | 35° |
| 2026-05-06 09:07 | 41.42906 | -72.77833 | 28151 ft | 521 kts | 35° |
| 2026-05-06 09:07 | 41.45719 | -72.74786 | 28618 ft | 520 kts | 35° |
| 2026-05-06 09:07 | 41.48528 | -72.71738 | 29189 ft | 519 kts | 35° |
| 2026-05-06 09:07 | 41.51326 | -72.68697 | 29794 ft | 518 kts | 35° |
| 2026-05-06 09:08 | 41.54113 | -72.65666 | 30331 ft | 516 kts | 35° |
| 2026-05-06 09:08 | 41.56889 | -72.62627 | 30830 ft | 515 kts | 36° |
| 2026-05-06 09:08 | 41.59555 | -72.59442 | 31337 ft | 515 kts | 39° |
| 2026-05-06 09:08 | 41.62073 | -72.56048 | 31946 ft | 511 kts | 43° |
| 2026-05-06 09:09 | 41.64415 | -72.52487 | 32534 ft | 510 kts | 47° |
| 2026-05-06 09:09 | 41.66597 | -72.48739 | 33102 ft | 510 kts | 50° |
| 2026-05-06 09:09 | 41.68610 | -72.44829 | 33599 ft | 510 kts | 54° |
| 2026-05-06 09:09 | 41.70478 | -72.40785 | 33960 ft | 511 kts | 56° |
| 2026-05-06 09:10 | 41.72304 | -72.36693 | 34243 ft | 512 kts | 56° |
| 2026-05-06 09:10 | 41.74121 | -72.32591 | 34497 ft | 512 kts | 56° |
| 2026-05-06 09:10 | 41.75942 | -72.28486 | 34791 ft | 512 kts | 55° |
| 2026-05-06 09:10 | 41.77770 | -72.24379 | 35171 ft | 511 kts | 55° |
| 2026-05-06 09:11 | 41.79589 | -72.20299 | 35542 ft | 509 kts | 54° |
| 2026-05-06 09:11 | 41.81415 | -72.16214 | 35889 ft | 510 kts | 54° |
| 2026-05-06 09:11 | 41.83240 | -72.12136 | 36147 ft | 511 kts | 54° |
| 2026-05-06 09:11 | 41.85076 | -72.08029 | 36329 ft | 514 kts | 54° |
| 2026-05-06 09:12 | 41.86915 | -72.03904 | 36519 ft | 516 kts | 54° |
| 2026-05-06 09:12 | 41.88757 | -71.99759 | 36703 ft | 517 kts | 54° |
| 2026-05-06 09:12 | 41.90609 | -71.95586 | 36894 ft | 518 kts | 54° |
| 2026-05-06 09:13 | 41.94495 | -71.87464 | 36915 ft | 512 kts | 49° |
| 2026-05-06 09:13 | 41.98940 | -71.80101 | 36953 ft | 504 kts | 41° |
| 2026-05-06 09:14 | 42.03867 | -71.73442 | 36933 ft | 502 kts | 38° |
| 2026-05-06 09:14 | 42.08891 | -71.66925 | 36931 ft | 502 kts | 38° |
| 2026-05-06 09:15 | 42.13908 | -71.60377 | 36945 ft | 502 kts | 38° |
| 2026-05-06 09:15 | 42.18921 | -71.53797 | 36914 ft | 501 kts | 38° |
| 2026-05-06 09:16 | 42.23886 | -71.47250 | 36906 ft | 498 kts | 38° |
| 2026-05-06 09:16 | 42.28840 | -71.40706 | 36904 ft | 498 kts | 38° |
| 2026-05-06 09:17 | 42.33793 | -71.34150 | 36906 ft | 499 kts | 38° |
| 2026-05-06 09:17 | 42.38752 | -71.27569 | 36899 ft | 499 kts | 38° |
| 2026-05-06 09:18 | 42.43710 | -71.20970 | 36925 ft | 500 kts | 38° |
| 2026-05-06 09:18 | 42.48667 | -71.14360 | 36925 ft | 501 kts | 39° |
| 2026-05-06 09:19 | 42.53640 | -71.07712 | 36915 ft | 501 kts | 39° |
| 2026-05-06 09:19 | 42.58605 | -71.01057 | 36916 ft | 502 kts | 39° |
| 2026-05-06 09:20 | 42.63568 | -70.94390 | 36931 ft | 503 kts | 39° |
| 2026-05-06 09:20 | 42.68267 | -70.87356 | 36908 ft | 508 kts | 46° |
| 2026-05-06 09:21 | 42.72399 | -70.79539 | 36902 ft | 510 kts | 52° |
| 2026-05-06 09:21 | 42.76248 | -70.71409 | 36897 ft | 511 kts | 52° |
| 2026-05-06 09:22 | 42.80087 | -70.63249 | 36893 ft | 512 kts | 52° |
| 2026-05-06 09:22 | 42.83935 | -70.55079 | 36886 ft | 512 kts | 52° |
| 2026-05-06 09:23 | 42.87778 | -70.46915 | 36893 ft | 510 kts | 52° |
| 2026-05-06 09:23 | 42.91611 | -70.38755 | 36918 ft | 510 kts | 52° |
| 2026-05-06 09:24 | 42.95442 | -70.30577 | 36904 ft | 511 kts | 52° |
| 2026-05-06 09:24 | 42.99275 | -70.22374 | 36897 ft | 512 kts | 52° |
| 2026-05-06 09:25 | 43.03098 | -70.14177 | 36903 ft | 510 kts | 53° |
| 2026-05-06 09:25 | 43.06260 | -70.07370 | 36906 ft | 509 kts | 53° |
| 2026-05-06 09:26 | 43.10056 | -69.99179 | 36909 ft | 509 kts | 53° |
| 2026-05-06 09:26 | 43.13847 | -69.90977 | 36924 ft | 509 kts | 53° |
| 2026-05-06 09:27 | 43.17635 | -69.82765 | 36915 ft | 508 kts | 53° |
| 2026-05-06 09:27 | 43.21411 | -69.74552 | 36928 ft | 509 kts | 53° |
| 2026-05-06 09:28 | 43.25186 | -69.66314 | 36924 ft | 509 kts | 54° |
| 2026-05-06 09:28 | 43.28954 | -69.58070 | 36925 ft | 509 kts | 54° |
| 2026-05-06 09:29 | 43.32717 | -69.49814 | 36943 ft | 509 kts | 54° |
| 2026-05-06 09:29 | 43.36477 | -69.41546 | 36931 ft | 510 kts | 54° |
| 2026-05-06 09:30 | 43.40232 | -69.33259 | 36927 ft | 510 kts | 54° |
| 2026-05-06 09:30 | 43.43982 | -69.24971 | 36931 ft | 509 kts | 54° |
| 2026-05-06 09:31 | 43.47719 | -69.16679 | 36945 ft | 510 kts | 54° |
| 2026-05-06 09:31 | 43.51458 | -69.08357 | 36940 ft | 510 kts | 54° |
| 2026-05-06 09:32 | 43.55190 | -69.00026 | 36935 ft | 510 kts | 55° |
| 2026-05-06 09:32 | 43.58916 | -68.91689 | 36935 ft | 510 kts | 55° |
| 2026-05-06 09:33 | 43.62638 | -68.83338 | 36942 ft | 511 kts | 55° |
| 2026-05-06 09:33 | 43.66359 | -68.74962 | 36942 ft | 511 kts | 55° |
| 2026-05-06 09:34 | 43.70082 | -68.66572 | 36935 ft | 511 kts | 56° |
| 2026-05-06 09:34 | 43.73791 | -68.58171 | 36962 ft | 511 kts | 56° |
| 2026-05-06 09:35 | 43.77495 | -68.49758 | 36952 ft | 512 kts | 56° |
| 2026-05-06 09:35 | 43.81197 | -68.41326 | 36947 ft | 512 kts | 56° |
| 2026-05-06 09:36 | 43.84891 | -68.32888 | 36948 ft | 512 kts | 56° |
| 2026-05-06 09:36 | 43.88585 | -68.24431 | 36959 ft | 512 kts | 56° |
| 2026-05-06 09:37 | 43.92273 | -68.15959 | 36949 ft | 513 kts | 56° |
| 2026-05-06 09:37 | 43.95958 | -68.07481 | 36950 ft | 511 kts | 57° |
| 2026-05-06 09:38 | 43.99619 | -67.99019 | 36959 ft | 511 kts | 57° |
| 2026-05-06 09:38 | 44.03269 | -67.90560 | 36965 ft | 511 kts | 57° |
| 2026-05-06 09:39 | 44.06920 | -67.82069 | 36961 ft | 511 kts | 57° |
| 2026-05-06 09:39 | 44.10567 | -67.73566 | 36961 ft | 511 kts | 57° |
| 2026-05-06 09:40 | 44.14212 | -67.65046 | 36977 ft | 512 kts | 57° |
| 2026-05-06 09:40 | 44.19671 | -67.52237 | 36969 ft | 512 kts | 57° |
| 2026-05-06 09:41 | 44.23275 | -67.43757 | 36957 ft | 510 kts | 58° |
| 2026-05-06 09:41 | 44.26886 | -67.35220 | 36971 ft | 510 kts | 58° |
| 2026-05-06 09:42 | 44.30489 | -67.26684 | 36981 ft | 510 kts | 58° |
| 2026-05-06 09:42 | 44.34090 | -67.18120 | 36972 ft | 511 kts | 58° |
| 2026-05-06 09:43 | 44.37684 | -67.09547 | 36982 ft | 511 kts | 58° |
| 2026-05-06 09:43 | 44.41431 | -67.01109 | 36974 ft | 510 kts | 53° |
| 2026-05-06 09:44 | 44.45788 | -66.93284 | 36971 ft | 509 kts | 47° |
| 2026-05-06 09:44 | 44.50437 | -66.85807 | 36971 ft | 508 kts | 46° |
| 2026-05-06 09:45 | 44.55091 | -66.78348 | 36961 ft | 508 kts | 47° |
| 2026-05-06 09:45 | 44.59734 | -66.70855 | 36969 ft | 508 kts | 47° |
| 2026-05-06 09:46 | 44.64360 | -66.63345 | 36960 ft | 508 kts | 47° |
| 2026-05-06 09:46 | 44.68985 | -66.55813 | 36961 ft | 508 kts | 47° |
| 2026-05-06 09:47 | 44.73607 | -66.48269 | 36964 ft | 509 kts | 48° |
| 2026-05-06 09:47 | 44.78222 | -66.40713 | 36963 ft | 509 kts | 48° |
| 2026-05-06 09:48 | 44.82828 | -66.33150 | 36965 ft | 509 kts | 48° |
| 2026-05-06 09:48 | 44.87439 | -66.25563 | 36980 ft | 509 kts | 48° |
| 2026-05-06 09:49 | 44.92042 | -66.17969 | 36968 ft | 509 kts | 48° |
| 2026-05-06 09:49 | 44.96615 | -66.10400 | 36984 ft | 509 kts | 48° |
| 2026-05-06 09:50 | 45.01226 | -66.02748 | 36985 ft | 509 kts | 48° |
| 2026-05-06 09:50 | 45.05787 | -65.95163 | 36975 ft | 511 kts | 49° |
| 2026-05-06 09:51 | 45.10393 | -65.87477 | 36971 ft | 511 kts | 49° |
| 2026-05-06 09:51 | 45.15020 | -65.79737 | 36965 ft | 511 kts | 49° |
| 2026-05-06 09:52 | 45.19586 | -65.72079 | 36967 ft | 512 kts | 49° |
| 2026-05-06 09:52 | 45.24183 | -65.64346 | 36963 ft | 513 kts | 49° |
| 2026-05-06 09:53 | 45.28782 | -65.56589 | 36966 ft | 513 kts | 49° |
| 2026-05-06 09:53 | 45.33375 | -65.48820 | 36967 ft | 513 kts | 49° |
| 2026-05-06 09:54 | 45.37971 | -65.41025 | 36964 ft | 514 kts | 49° |
| 2026-05-06 09:54 | 45.42561 | -65.33218 | 36963 ft | 514 kts | 49° |
| 2026-05-06 09:55 | 45.47145 | -65.25401 | 36965 ft | 514 kts | 49° |
| 2026-05-06 09:55 | 45.51726 | -65.17569 | 36968 ft | 514 kts | 49° |
| 2026-05-06 09:56 | 45.56304 | -65.09716 | 36963 ft | 514 kts | 49° |
| 2026-05-06 09:56 | 45.60872 | -65.01858 | 36947 ft | 513 kts | 49° |
| 2026-05-06 09:57 | 45.65413 | -64.94022 | 36964 ft | 511 kts | 49° |
| 2026-05-06 09:57 | 45.69942 | -64.86191 | 36957 ft | 511 kts | 49° |
| 2026-05-06 09:58 | 45.74465 | -64.78348 | 36954 ft | 511 kts | 49° |
| 2026-05-06 09:58 | 45.78990 | -64.70479 | 36959 ft | 511 kts | 50° |
| 2026-05-06 09:59 | 45.83524 | -64.62573 | 36941 ft | 513 kts | 50° |
| 2026-05-06 09:59 | 45.88058 | -64.54640 | 36936 ft | 514 kts | 50° |
| 2026-05-06 10:00 | 45.92589 | -64.46691 | 36928 ft | 514 kts | 50° |
| 2026-05-06 10:00 | 45.97116 | -64.38728 | 36933 ft | 514 kts | 50° |
| 2026-05-06 10:01 | 46.01602 | -64.30814 | 36933 ft | 514 kts | 50° |
| 2026-05-06 10:01 | 46.06149 | -64.22769 | 36937 ft | 514 kts | 50° |
| 2026-05-06 10:02 | 46.10626 | -64.14826 | 36955 ft | 514 kts | 50° |
| 2026-05-06 10:02 | 46.15136 | -64.06800 | 36928 ft | 515 kts | 50° |
| 2026-05-06 10:03 | 46.19612 | -63.98802 | 36936 ft | 511 kts | 50° |
| 2026-05-06 10:03 | 46.24072 | -63.90826 | 36937 ft | 510 kts | 50° |
| 2026-05-06 10:04 | 46.28534 | -63.82820 | 36949 ft | 511 kts | 50° |
| 2026-05-06 10:04 | 46.32995 | -63.74792 | 36946 ft | 512 kts | 50° |
| 2026-05-06 10:05 | 46.37450 | -63.66750 | 36942 ft | 512 kts | 50° |
| 2026-05-06 10:05 | 46.41906 | -63.58686 | 36949 ft | 513 kts | 50° |
| 2026-05-06 10:06 | 46.46365 | -63.50589 | 36944 ft | 514 kts | 50° |
| 2026-05-06 10:06 | 46.50822 | -63.42472 | 36950 ft | 514 kts | 50° |
| 2026-05-06 10:07 | 46.55268 | -63.34351 | 36968 ft | 514 kts | 50° |
| 2026-05-06 10:07 | 46.59717 | -63.26202 | 36953 ft | 515 kts | 50° |
| 2026-05-06 10:08 | 46.64103 | -63.18145 | 36950 ft | 515 kts | 50° |
| 2026-05-06 10:08 | 46.68548 | -63.09954 | 36950 ft | 515 kts | 50° |
| 2026-05-06 10:09 | 46.72973 | -63.01768 | 36955 ft | 513 kts | 50° |
| 2026-05-06 10:09 | 46.76643 | -62.94970 | 36953 ft | 513 kts | 50° |
| 2026-05-06 10:10 | 46.81050 | -62.86785 | 36952 ft | 513 kts | 50° |
| 2026-05-06 10:10 | 46.86169 | -62.77245 | 36968 ft | 513 kts | 50° |
| 2026-05-06 10:11 | 46.89862 | -62.70344 | 36963 ft | 514 kts | 50° |
| 2026-05-06 10:11 | 46.94263 | -62.62093 | 36969 ft | 514 kts | 51° |
| 2026-05-06 10:12 | 46.98660 | -62.53824 | 36956 ft | 515 kts | 51° |
| 2026-05-06 10:12 | 47.03045 | -62.45552 | 36961 ft | 515 kts | 51° |
| 2026-05-06 10:13 | 47.07448 | -62.37223 | 36960 ft | 516 kts | 51° |
| 2026-05-06 10:13 | 47.11839 | -62.28892 | 36962 ft | 516 kts | 51° |
| 2026-05-06 10:14 | 47.16231 | -62.20535 | 36972 ft | 516 kts | 51° |
| 2026-05-06 10:14 | 47.20622 | -62.12155 | 36976 ft | 518 kts | 51° |
| 2026-05-06 10:15 | 47.25014 | -62.03745 | 36942 ft | 517 kts | 51° |
| 2026-05-06 10:15 | 47.29345 | -61.95423 | 36956 ft | 514 kts | 51° |
| 2026-05-06 10:16 | 47.33693 | -61.87049 | 36938 ft | 514 kts | 51° |
| 2026-05-06 10:16 | 47.38034 | -61.78663 | 36954 ft | 514 kts | 51° |
| 2026-05-06 10:17 | 47.42368 | -61.70262 | 36939 ft | 514 kts | 51° |
| 2026-05-06 10:17 | 47.46695 | -61.61848 | 36942 ft | 514 kts | 51° |
| 2026-05-06 10:18 | 47.51018 | -61.53417 | 36937 ft | 514 kts | 51° |
| 2026-05-06 10:18 | 47.55336 | -61.44970 | 36940 ft | 514 kts | 51° |
| 2026-05-06 10:19 | 47.59645 | -61.36515 | 36958 ft | 514 kts | 52° |
| 2026-05-06 10:19 | 47.63952 | -61.28038 | 36990 ft | 515 kts | 52° |
| 2026-05-06 10:20 | 47.68256 | -61.19542 | 36973 ft | 515 kts | 52° |
| 2026-05-06 10:20 | 47.72554 | -61.11028 | 36968 ft | 515 kts | 52° |
| 2026-05-06 10:21 | 47.76844 | -61.02504 | 36971 ft | 515 kts | 52° |
| 2026-05-06 10:21 | 47.81129 | -60.93968 | 36969 ft | 514 kts | 52° |
| 2026-05-06 10:22 | 47.85398 | -60.85433 | 36973 ft | 513 kts | 52° |
| 2026-05-06 10:22 | 47.89656 | -60.76892 | 36969 ft | 513 kts | 52° |
| 2026-05-06 10:23 | 47.93911 | -60.68332 | 36971 ft | 513 kts | 52° |
| 2026-05-06 10:23 | 47.98166 | -60.59740 | 36970 ft | 516 kts | 52° |
| 2026-05-06 10:24 | 48.02426 | -60.51117 | 36968 ft | 516 kts | 52° |
| 2026-05-06 10:24 | 48.06685 | -60.42468 | 36964 ft | 516 kts | 52° |
| 2026-05-06 10:25 | 48.10936 | -60.33808 | 36970 ft | 517 kts | 52° |
| 2026-05-06 10:25 | 48.15163 | -60.25167 | 36972 ft | 517 kts | 52° |
| 2026-05-06 10:26 | 48.19413 | -60.16454 | 36974 ft | 517 kts | 53° |
| 2026-05-06 10:26 | 48.23687 | -60.07662 | 36985 ft | 517 kts | 53° |
| 2026-05-06 10:27 | 48.27919 | -59.98927 | 36988 ft | 517 kts | 53° |
| 2026-05-06 10:27 | 48.32119 | -59.90232 | 36982 ft | 517 kts | 53° |
| 2026-05-06 10:28 | 48.36372 | -59.81394 | 36974 ft | 517 kts | 53° |
| 2026-05-06 10:28 | 48.40557 | -59.72675 | 37003 ft | 517 kts | 53° |
| 2026-05-06 10:29 | 48.44769 | -59.63870 | 36986 ft | 518 kts | 53° |
| 2026-05-06 10:29 | 48.48982 | -59.55035 | 36982 ft | 519 kts | 53° |
| 2026-05-06 10:30 | 48.53190 | -59.46184 | 36981 ft | 519 kts | 53° |
| 2026-05-06 10:30 | 48.57389 | -59.37317 | 36978 ft | 519 kts | 53° |
| 2026-05-06 10:31 | 48.61585 | -59.28429 | 36979 ft | 519 kts | 53° |
| 2026-05-06 10:31 | 48.65772 | -59.19532 | 36977 ft | 519 kts | 53° |
| 2026-05-06 10:32 | 48.69952 | -59.10620 | 36982 ft | 519 kts | 53° |
| 2026-05-06 10:32 | 48.74126 | -59.01690 | 36984 ft | 520 kts | 53° |
| 2026-05-06 10:33 | 48.78298 | -58.92737 | 36982 ft | 520 kts | 53° |
| 2026-05-06 10:33 | 48.82470 | -58.83754 | 36980 ft | 520 kts | 53° |
| 2026-05-06 10:34 | 48.86633 | -58.74759 | 36988 ft | 520 kts | 53° |
| 2026-05-06 10:34 | 48.90782 | -58.65763 | 36964 ft | 517 kts | 53° |
| 2026-05-06 10:35 | 48.94899 | -58.56809 | 36975 ft | 516 kts | 53° |
| 2026-05-06 10:35 | 48.99008 | -58.47845 | 36970 ft | 515 kts | 53° |
| 2026-05-06 10:36 | 49.03102 | -58.38877 | 36974 ft | 516 kts | 53° |
| 2026-05-06 10:36 | 49.07199 | -58.29876 | 36966 ft | 516 kts | 53° |
| 2026-05-06 10:37 | 49.11284 | -58.20872 | 36973 ft | 515 kts | 53° |
| 2026-05-06 10:37 | 49.15363 | -58.11850 | 36977 ft | 515 kts | 54° |
| 2026-05-06 10:38 | 49.19442 | -58.02816 | 36962 ft | 516 kts | 54° |
| 2026-05-06 10:38 | 49.23503 | -57.93766 | 36964 ft | 516 kts | 55° |
| 2026-05-06 10:39 | 49.27560 | -57.84686 | 36959 ft | 516 kts | 55° |
| 2026-05-06 10:39 | 49.31585 | -57.75654 | 36959 ft | 516 kts | 55° |
| 2026-05-06 10:40 | 49.35632 | -57.66544 | 36967 ft | 517 kts | 55° |
| 2026-05-06 10:40 | 49.39680 | -57.57408 | 36963 ft | 517 kts | 55° |
| 2026-05-06 10:41 | 49.43749 | -57.48190 | 36943 ft | 517 kts | 55° |
| 2026-05-06 10:41 | 49.47752 | -57.39088 | 36950 ft | 516 kts | 55° |
| 2026-05-06 10:42 | 49.51765 | -57.29935 | 36938 ft | 516 kts | 54° |
| 2026-05-06 10:42 | 49.55776 | -57.20759 | 36967 ft | 516 kts | 55° |
| 2026-05-06 10:43 | 49.59775 | -57.11579 | 36965 ft | 516 kts | 55° |
| 2026-05-06 10:44 | 49.65791 | -56.97700 | 36960 ft | 517 kts | 55° |
| 2026-05-06 10:44 | 49.69781 | -56.88457 | 36956 ft | 517 kts | 55° |
| 2026-05-06 10:45 | 49.73769 | -56.79191 | 36956 ft | 517 kts | 55° |
| 2026-05-06 10:45 | 49.77742 | -56.69923 | 36956 ft | 517 kts | 55° |
| 2026-05-06 10:46 | 49.81713 | -56.60620 | 36956 ft | 518 kts | 55° |
| 2026-05-06 10:46 | 49.85690 | -56.51280 | 36953 ft | 519 kts | 55° |
| 2026-05-06 10:47 | 49.89664 | -56.41911 | 36953 ft | 519 kts | 55° |
| 2026-05-06 10:47 | 49.93627 | -56.32537 | 36964 ft | 519 kts | 55° |
| 2026-05-06 10:48 | 49.97587 | -56.23127 | 36935 ft | 520 kts | 55° |
| 2026-05-06 10:48 | 50.01537 | -56.13710 | 36940 ft | 519 kts | 55° |
| 2026-05-06 10:49 | 50.05484 | -56.04279 | 36938 ft | 519 kts | 55° |
| 2026-05-06 10:49 | 50.09418 | -55.94837 | 36959 ft | 520 kts | 55° |
| 2026-05-06 10:50 | 50.13352 | -55.85358 | 36945 ft | 521 kts | 55° |
| 2026-05-06 10:50 | 50.17287 | -55.75850 | 36932 ft | 521 kts | 55° |
| 2026-05-06 10:51 | 50.21216 | -55.66318 | 36933 ft | 521 kts | 55° |
| 2026-05-06 10:51 | 50.25134 | -55.56775 | 36947 ft | 522 kts | 55° |
| 2026-05-06 10:52 | 50.29054 | -55.47196 | 36930 ft | 523 kts | 55° |
| 2026-05-06 10:52 | 50.32970 | -55.37594 | 36928 ft | 523 kts | 55° |
| 2026-05-06 10:53 | 50.36836 | -55.28077 | 36927 ft | 523 kts | 55° |
| 2026-05-06 10:53 | 50.40734 | -55.18442 | 36941 ft | 523 kts | 55° |
| 2026-05-06 10:54 | 50.44622 | -55.08800 | 36936 ft | 523 kts | 55° |
| 2026-05-06 10:54 | 50.47849 | -55.00770 | 36936 ft | 523 kts | 55° |
| 2026-05-06 10:55 | 50.51726 | -54.91091 | 36934 ft | 523 kts | 55° |
| 2026-05-06 10:55 | 50.55590 | -54.81409 | 36934 ft | 523 kts | 55° |
| 2026-05-06 10:56 | 50.59450 | -54.71697 | 36936 ft | 523 kts | 56° |
| 2026-05-06 10:56 | 50.63302 | -54.61971 | 36938 ft | 523 kts | 56° |
| 2026-05-06 10:57 | 50.67146 | -54.52228 | 36940 ft | 523 kts | 56° |
| 2026-05-06 10:57 | 50.70975 | -54.42473 | 36944 ft | 522 kts | 55° |
| 2026-05-06 10:58 | 50.74794 | -54.32726 | 36937 ft | 521 kts | 55° |
| 2026-05-06 10:58 | 50.78604 | -54.22967 | 36940 ft | 521 kts | 56° |
| 2026-05-06 10:59 | 50.82407 | -54.13186 | 36949 ft | 522 kts | 56° |
| 2026-05-06 10:59 | 50.86198 | -54.03384 | 36950 ft | 521 kts | 55° |
| 2026-05-06 11:00 | 50.89984 | -53.93575 | 36946 ft | 521 kts | 55° |
| 2026-05-06 11:00 | 50.93758 | -53.83758 | 36949 ft | 521 kts | 56° |
| 2026-05-06 11:01 | 50.97525 | -53.73920 | 36950 ft | 521 kts | 56° |
| 2026-05-06 11:01 | 51.01284 | -53.64057 | 36951 ft | 521 kts | 56° |
| 2026-05-06 11:02 | 51.05023 | -53.54223 | 36943 ft | 517 kts | 56° |
| 2026-05-06 11:02 | 51.08732 | -53.44424 | 36951 ft | 516 kts | 56° |
| 2026-05-06 11:03 | 51.12429 | -53.34616 | 36948 ft | 516 kts | 56° |
| 2026-05-06 11:03 | 51.16068 | -53.24739 | 36950 ft | 516 kts | 58° |
| 2026-05-06 11:04 | 51.19191 | -53.14330 | 37387 ft | 520 kts | 64° |
| 2026-05-06 11:04 | 51.20636 | -53.09063 | 37791 ft | 517 kts | 64° |
| 2026-05-06 11:04 | 51.22069 | -53.03792 | 37942 ft | 517 kts | 64° |
| 2026-05-06 11:05 | 51.24922 | -52.93281 | 37951 ft | 515 kts | 64° |
| 2026-05-06 11:05 | 51.27774 | -52.82779 | 37966 ft | 513 kts | 64° |
| 2026-05-06 11:06 | 51.30609 | -52.72311 | 37949 ft | 512 kts | 64° |
| 2026-05-06 11:06 | 51.33432 | -52.61845 | 37965 ft | 512 kts | 64° |
| 2026-05-06 11:07 | 51.36249 | -52.51358 | 37967 ft | 512 kts | 64° |
| 2026-05-06 11:07 | 51.39051 | -52.40865 | 37969 ft | 510 kts | 64° |
| 2026-05-06 11:08 | 51.41834 | -52.30414 | 37945 ft | 508 kts | 64° |
| 2026-05-06 11:08 | 51.44602 | -52.19970 | 37970 ft | 508 kts | 64° |
| 2026-05-06 11:09 | 51.47360 | -52.09514 | 37973 ft | 508 kts | 64° |
| 2026-05-06 11:09 | 51.50107 | -51.99052 | 37964 ft | 508 kts | 65° |
| 2026-05-06 11:10 | 51.52846 | -51.88571 | 37967 ft | 509 kts | 65° |
| 2026-05-06 11:10 | 51.55578 | -51.78068 | 37974 ft | 509 kts | 65° |
| 2026-05-06 11:11 | 51.58300 | -51.67556 | 37975 ft | 509 kts | 65° |
| 2026-05-06 11:11 | 51.61015 | -51.57021 | 37976 ft | 509 kts | 65° |
| 2026-05-06 11:12 | 51.63717 | -51.46488 | 37979 ft | 508 kts | 65° |
| 2026-05-06 11:12 | 51.66402 | -51.35956 | 37981 ft | 506 kts | 65° |
| 2026-05-06 11:13 | 51.69070 | -51.25459 | 37988 ft | 506 kts | 65° |
| 2026-05-06 11:13 | 51.71733 | -51.14936 | 37986 ft | 506 kts | 65° |
| 2026-05-06 11:14 | 51.74381 | -51.04418 | 38012 ft | 506 kts | 65° |
| 2026-05-06 11:14 | 51.77024 | -50.93867 | 37995 ft | 506 kts | 65° |
| 2026-05-06 11:15 | 51.79659 | -50.83304 | 37996 ft | 506 kts | 65° |
| 2026-05-06 11:15 | 51.82286 | -50.72717 | 37995 ft | 506 kts | 65° |
| 2026-05-06 11:16 | 51.84900 | -50.62135 | 37995 ft | 506 kts | 65° |
| 2026-05-06 11:16 | 51.87492 | -50.51591 | 38004 ft | 507 kts | 65° |
| 2026-05-06 11:17 | 51.90088 | -50.40980 | 38005 ft | 507 kts | 66° |
| 2026-05-06 11:17 | 51.92694 | -50.30266 | 37998 ft | 507 kts | 65° |
| 2026-05-06 11:18 | 51.95271 | -50.19634 | 38002 ft | 506 kts | 65° |
| 2026-05-06 11:18 | 51.97823 | -50.09052 | 38030 ft | 506 kts | 66° |
| 2026-05-06 11:19 | 52.00174 | -49.98247 | 38011 ft | 508 kts | 71° |
| 2026-05-06 11:19 | 52.01896 | -49.87101 | 38012 ft | 509 kts | 75° |
| 2026-05-06 11:20 | 52.03487 | -49.75860 | 38017 ft | 510 kts | 75° |
| 2026-05-06 11:20 | 52.05072 | -49.64626 | 38018 ft | 510 kts | 75° |
| 2026-05-06 11:21 | 52.06656 | -49.53387 | 38031 ft | 510 kts | 75° |
| 2026-05-06 11:21 | 52.08234 | -49.42137 | 38020 ft | 509 kts | 75° |
| 2026-05-06 11:22 | 52.09799 | -49.30880 | 38026 ft | 509 kts | 75° |
| 2026-05-06 11:22 | 52.11358 | -49.19619 | 38029 ft | 509 kts | 75° |
| 2026-05-06 11:23 | 52.12905 | -49.08354 | 38032 ft | 509 kts | 75° |
| 2026-05-06 11:23 | 52.14441 | -48.97072 | 38055 ft | 510 kts | 75° |
| 2026-05-06 11:24 | 52.15965 | -48.85786 | 38037 ft | 509 kts | 75° |
| 2026-05-06 11:24 | 52.17479 | -48.74503 | 38039 ft | 509 kts | 75° |
| 2026-05-06 11:25 | 52.18972 | -48.63284 | 38046 ft | 509 kts | 75° |
| 2026-05-06 11:25 | 52.20463 | -48.51973 | 38044 ft | 509 kts | 75° |
| 2026-05-06 11:26 | 52.21943 | -48.40667 | 38069 ft | 509 kts | 75° |
| 2026-05-06 11:26 | 52.23413 | -48.29357 | 38058 ft | 509 kts | 75° |
| 2026-05-06 11:27 | 52.24871 | -48.18052 | 38055 ft | 509 kts | 75° |
| 2026-05-06 11:27 | 52.26319 | -48.06726 | 38056 ft | 509 kts | 75° |
| 2026-05-06 11:28 | 52.27755 | -47.95398 | 38064 ft | 509 kts | 75° |
| 2026-05-06 11:28 | 52.29181 | -47.84059 | 38087 ft | 509 kts | 75° |
| 2026-05-06 11:29 | 52.30597 | -47.72705 | 38061 ft | 509 kts | 75° |
| 2026-05-06 11:29 | 52.31999 | -47.61350 | 38075 ft | 509 kts | 75° |
| 2026-05-06 11:30 | 52.33392 | -47.50001 | 38069 ft | 509 kts | 75° |
| 2026-05-06 11:30 | 52.34775 | -47.38640 | 38075 ft | 509 kts | 76° |
| 2026-05-06 11:31 | 52.36146 | -47.27270 | 38109 ft | 509 kts | 76° |
| 2026-05-06 11:31 | 52.37506 | -47.15889 | 38085 ft | 508 kts | 76° |
| 2026-05-06 11:32 | 52.38853 | -47.04518 | 38083 ft | 508 kts | 76° |
| 2026-05-06 11:32 | 52.40190 | -46.93138 | 38087 ft | 508 kts | 76° |
| 2026-05-06 11:33 | 52.41517 | -46.81742 | 38094 ft | 508 kts | 76° |
| 2026-05-06 11:33 | 52.42830 | -46.70345 | 38127 ft | 508 kts | 76° |
| 2026-05-06 11:34 | 52.44136 | -46.58939 | 38096 ft | 508 kts | 76° |
| 2026-05-06 11:34 | 52.45429 | -46.47538 | 38094 ft | 508 kts | 76° |
| 2026-05-06 11:35 | 52.46712 | -46.36119 | 38104 ft | 508 kts | 76° |
| 2026-05-06 11:35 | 52.47982 | -46.24702 | 38107 ft | 508 kts | 76° |
| 2026-05-06 11:36 | 52.49244 | -46.13261 | 38110 ft | 508 kts | 76° |
| 2026-05-06 11:36 | 52.50492 | -46.01832 | 38106 ft | 508 kts | 76° |
| 2026-05-06 11:37 | 52.51728 | -45.90406 | 38110 ft | 508 kts | 76° |
| 2026-05-06 11:37 | 52.52748 | -45.80890 | 38113 ft | 508 kts | 76° |
| 2026-05-06 11:38 | 52.53965 | -45.69450 | 38105 ft | 508 kts | 76° |
| 2026-05-06 11:38 | 52.55172 | -45.57993 | 38105 ft | 508 kts | 77° |
| 2026-05-06 11:39 | 52.56368 | -45.46534 | 38121 ft | 508 kts | 77° |
| 2026-05-06 11:39 | 52.57552 | -45.35067 | 38117 ft | 508 kts | 77° |
| 2026-05-06 11:40 | 52.58725 | -45.23595 | 38114 ft | 508 kts | 77° |
| 2026-05-06 11:40 | 52.59887 | -45.12118 | 38116 ft | 508 kts | 77° |
| 2026-05-06 11:41 | 52.61038 | -45.00634 | 38115 ft | 508 kts | 77° |
| 2026-05-06 11:41 | 52.62178 | -44.89139 | 38115 ft | 508 kts | 77° |
| 2026-05-06 11:42 | 52.63307 | -44.77636 | 38118 ft | 508 kts | 77° |
| 2026-05-06 11:42 | 52.64425 | -44.66125 | 38117 ft | 508 kts | 77° |
| 2026-05-06 11:43 | 52.65532 | -44.54606 | 38118 ft | 508 kts | 77° |
| 2026-05-06 11:43 | 52.66628 | -44.43088 | 38121 ft | 508 kts | 78° |
| 2026-05-06 11:44 | 52.68250 | -44.25815 | 38124 ft | 508 kts | 78° |
| 2026-05-06 11:44 | 52.69316 | -44.14292 | 38123 ft | 508 kts | 78° |
| 2026-05-06 11:45 | 52.70362 | -44.02854 | 38123 ft | 507 kts | 78° |
| 2026-05-06 11:45 | 52.71407 | -43.91322 | 38122 ft | 507 kts | 78° |
| 2026-05-06 11:46 | 52.72440 | -43.79790 | 38124 ft | 507 kts | 78° |
| 2026-05-06 11:46 | 52.73461 | -43.68261 | 38120 ft | 506 kts | 78° |
| 2026-05-06 11:47 | 52.74468 | -43.56743 | 38117 ft | 506 kts | 78° |
| 2026-05-06 11:47 | 52.75465 | -43.45224 | 38119 ft | 506 kts | 78° |
| 2026-05-06 11:48 | 52.76451 | -43.33690 | 38121 ft | 506 kts | 78° |
| 2026-05-06 11:48 | 52.77426 | -43.22150 | 38123 ft | 506 kts | 78° |
| 2026-05-06 11:49 | 52.78391 | -43.10604 | 38128 ft | 507 kts | 79° |
| 2026-05-06 11:49 | 52.79344 | -42.99040 | 38120 ft | 507 kts | 79° |
| 2026-05-06 11:50 | 52.80286 | -42.87478 | 38118 ft | 507 kts | 79° |
| 2026-05-06 11:50 | 52.81217 | -42.75909 | 38114 ft | 507 kts | 79° |
| 2026-05-06 11:51 | 52.82136 | -42.64340 | 38112 ft | 507 kts | 79° |
| 2026-05-06 11:51 | 52.83046 | -42.52760 | 38127 ft | 507 kts | 79° |
| 2026-05-06 11:52 | 52.83942 | -42.41188 | 38109 ft | 506 kts | 79° |
| 2026-05-06 11:52 | 52.84826 | -42.29623 | 38117 ft | 506 kts | 80° |
| 2026-05-06 11:53 | 52.85700 | -42.18031 | 38110 ft | 507 kts | 80° |
| 2026-05-06 11:53 | 52.86562 | -42.06449 | 38114 ft | 507 kts | 80° |
| 2026-05-06 11:54 | 52.87414 | -41.94851 | 38124 ft | 506 kts | 80° |
| 2026-05-06 11:54 | 52.88253 | -41.83273 | 38115 ft | 506 kts | 80° |
| 2026-05-06 11:55 | 52.89079 | -41.71692 | 38108 ft | 506 kts | 80° |
| 2026-05-06 11:55 | 52.89895 | -41.60109 | 38110 ft | 506 kts | 81° |
| 2026-05-06 11:56 | 52.90700 | -41.48521 | 38108 ft | 506 kts | 81° |
| 2026-05-06 11:56 | 52.91494 | -41.36923 | 38123 ft | 505 kts | 81° |
| 2026-05-06 11:57 | 52.92274 | -41.25352 | 38109 ft | 504 kts | 81° |
| 2026-05-06 11:57 | 52.93042 | -41.13790 | 38108 ft | 504 kts | 81° |
| 2026-05-06 11:58 | 52.93794 | -41.02297 | 38108 ft | 504 kts | 81° |
| 2026-05-06 11:58 | 52.94541 | -40.90718 | 38107 ft | 504 kts | 81° |
| 2026-05-06 11:59 | 52.95276 | -40.79137 | 38129 ft | 504 kts | 82° |
| 2026-05-06 11:59 | 52.96002 | -40.67547 | 38112 ft | 504 kts | 82° |
| 2026-05-06 12:00 | 52.96712 | -40.55978 | 38112 ft | 504 kts | 82° |
| 2026-05-06 12:00 | 52.97414 | -40.44382 | 38116 ft | 505 kts | 82° |
| 2026-05-06 12:01 | 52.98105 | -40.32777 | 38113 ft | 505 kts | 82° |
| 2026-05-06 12:01 | 52.98784 | -40.21169 | 38113 ft | 505 kts | 82° |
| 2026-05-06 12:02 | 52.99453 | -40.09560 | 38116 ft | 504 kts | 83° |
| 2026-05-06 12:02 | 53.00351 | -39.98038 | 38113 ft | 502 kts | 77° |
| 2026-05-06 12:03 | 53.01865 | -39.86713 | 38114 ft | 501 kts | 74° |
| 2026-05-06 12:03 | 53.03494 | -39.75439 | 38112 ft | 501 kts | 74° |
| 2026-05-06 12:04 | 53.05109 | -39.64158 | 38122 ft | 501 kts | 74° |
| 2026-05-06 12:04 | 53.06710 | -39.52859 | 38111 ft | 501 kts | 75° |
| 2026-05-06 12:05 | 53.08292 | -39.41568 | 38108 ft | 501 kts | 75° |
| 2026-05-06 12:05 | 53.09864 | -39.30251 | 38108 ft | 501 kts | 75° |
| 2026-05-06 12:06 | 53.11426 | -39.18922 | 38107 ft | 501 kts | 75° |
| 2026-05-06 12:06 | 53.12979 | -39.07578 | 38107 ft | 502 kts | 75° |
| 2026-05-06 12:07 | 53.14520 | -38.96236 | 38107 ft | 502 kts | 75° |
| 2026-05-06 12:07 | 53.16051 | -38.84876 | 38108 ft | 502 kts | 75° |
| 2026-05-06 12:08 | 53.17570 | -38.73520 | 38103 ft | 502 kts | 75° |
| 2026-05-06 12:08 | 53.19079 | -38.62145 | 38105 ft | 502 kts | 76° |
| 2026-05-06 12:09 | 53.20580 | -38.50763 | 38109 ft | 501 kts | 76° |
| 2026-05-06 12:09 | 53.22065 | -38.39383 | 38102 ft | 501 kts | 76° |
| 2026-05-06 12:10 | 53.23540 | -38.27994 | 38107 ft | 501 kts | 76° |
| 2026-05-06 12:10 | 53.25005 | -38.16595 | 38106 ft | 502 kts | 76° |
| 2026-05-06 12:11 | 53.26451 | -38.05254 | 38110 ft | 502 kts | 76° |
| 2026-05-06 12:11 | 53.27896 | -37.93836 | 38100 ft | 501 kts | 76° |
| 2026-05-06 12:12 | 53.29328 | -37.82414 | 38101 ft | 501 kts | 76° |
| 2026-05-06 12:12 | 53.30748 | -37.70989 | 38106 ft | 501 kts | 77° |
| 2026-05-06 12:13 | 53.32159 | -37.59545 | 38100 ft | 501 kts | 77° |
| 2026-05-06 12:13 | 53.33560 | -37.48100 | 38115 ft | 501 kts | 77° |
| 2026-05-06 12:14 | 53.34946 | -37.36677 | 38103 ft | 500 kts | 77° |
| 2026-05-06 12:14 | 53.36319 | -37.25245 | 38099 ft | 500 kts | 77° |
| 2026-05-06 12:15 | 53.37681 | -37.13818 | 38112 ft | 500 kts | 77° |
| 2026-05-06 12:15 | 53.39033 | -37.02373 | 38114 ft | 500 kts | 77° |
| 2026-05-06 12:16 | 53.40378 | -36.90912 | 38113 ft | 500 kts | 78° |
| 2026-05-06 12:16 | 53.41707 | -36.79467 | 38111 ft | 500 kts | 78° |
| 2026-05-06 12:17 | 53.43023 | -36.68012 | 38107 ft | 500 kts | 78° |
| 2026-05-06 12:17 | 53.44330 | -36.56545 | 38107 ft | 500 kts | 78° |
| 2026-05-06 12:18 | 53.45626 | -36.45075 | 38106 ft | 500 kts | 78° |
| 2026-05-06 12:18 | 53.46913 | -36.33608 | 38114 ft | 499 kts | 78° |
| 2026-05-06 12:19 | 53.48184 | -36.22149 | 38105 ft | 498 kts | 78° |
| 2026-05-06 12:19 | 53.49443 | -36.10689 | 38108 ft | 498 kts | 79° |
| 2026-05-06 12:20 | 53.50691 | -35.99227 | 38107 ft | 498 kts | 79° |
| 2026-05-06 12:20 | 53.51928 | -35.87755 | 38102 ft | 498 kts | 79° |
| 2026-05-06 12:21 | 53.53157 | -35.76284 | 38109 ft | 497 kts | 79° |
| 2026-05-06 12:21 | 53.54369 | -35.64823 | 38100 ft | 497 kts | 79° |
| 2026-05-06 12:22 | 53.55368 | -35.55294 | 38100 ft | 497 kts | 79° |
| 2026-05-06 12:22 | 53.56561 | -35.43821 | 38098 ft | 497 kts | 79° |
| 2026-05-06 12:23 | 53.57743 | -35.32346 | 38107 ft | 497 kts | 79° |
| 2026-05-06 12:23 | 53.58916 | -35.20857 | 38099 ft | 497 kts | 80° |
| 2026-05-06 12:24 | 53.60074 | -35.09374 | 38092 ft | 497 kts | 80° |
| 2026-05-06 12:24 | 53.61222 | -34.97883 | 38093 ft | 497 kts | 80° |
| 2026-05-06 12:25 | 53.62360 | -34.86385 | 38088 ft | 497 kts | 80° |
| 2026-05-06 12:25 | 53.63486 | -34.74884 | 38093 ft | 497 kts | 80° |
| 2026-05-06 12:26 | 53.64603 | -34.63368 | 38085 ft | 497 kts | 81° |
| 2026-05-06 12:26 | 53.65707 | -34.51852 | 38082 ft | 497 kts | 81° |
| 2026-05-06 12:27 | 53.66801 | -34.40323 | 38081 ft | 497 kts | 81° |
| 2026-05-06 12:27 | 53.67884 | -34.28785 | 38081 ft | 497 kts | 81° |
| 2026-05-06 12:28 | 53.68956 | -34.17247 | 38078 ft | 497 kts | 81° |
| 2026-05-06 12:28 | 53.70018 | -34.05686 | 38077 ft | 497 kts | 81° |
| 2026-05-06 12:29 | 53.71068 | -33.94127 | 38070 ft | 497 kts | 81° |
| 2026-05-06 12:29 | 53.72107 | -33.82567 | 38069 ft | 497 kts | 81° |
| 2026-05-06 12:30 | 53.73135 | -33.70993 | 38068 ft | 497 kts | 81° |
| 2026-05-06 12:30 | 53.74151 | -33.59424 | 38068 ft | 497 kts | 81° |
| 2026-05-06 12:31 | 53.75156 | -33.47847 | 38061 ft | 497 kts | 81° |
| 2026-05-06 12:31 | 53.76152 | -33.36253 | 38060 ft | 498 kts | 82° |
| 2026-05-06 12:32 | 53.77136 | -33.24646 | 38063 ft | 497 kts | 82° |
| 2026-05-06 12:32 | 53.78109 | -33.13044 | 38058 ft | 497 kts | 82° |
| 2026-05-06 12:33 | 53.79070 | -33.01439 | 38055 ft | 497 kts | 82° |
| 2026-05-06 12:33 | 53.80013 | -32.89914 | 38056 ft | 497 kts | 82° |
| 2026-05-06 12:34 | 53.80956 | -32.78239 | 38052 ft | 497 kts | 82° |
| 2026-05-06 12:34 | 53.81876 | -32.66713 | 38051 ft | 497 kts | 82° |
| 2026-05-06 12:35 | 53.82790 | -32.55099 | 38044 ft | 497 kts | 82° |
| 2026-05-06 12:35 | 53.83693 | -32.43486 | 38047 ft | 496 kts | 82° |
| 2026-05-06 12:36 | 53.84585 | -32.31876 | 38039 ft | 496 kts | 82° |
| 2026-05-06 12:36 | 53.85474 | -32.20150 | 38037 ft | 496 kts | 83° |
| 2026-05-06 12:37 | 53.86342 | -32.08547 | 38037 ft | 496 kts | 83° |
| 2026-05-06 12:37 | 53.87200 | -31.96915 | 38039 ft | 496 kts | 83° |
| 2026-05-06 12:38 | 53.88045 | -31.85314 | 38029 ft | 495 kts | 83° |
| 2026-05-06 12:38 | 53.88880 | -31.73702 | 38031 ft | 496 kts | 83° |
| 2026-05-06 12:39 | 53.89703 | -31.62074 | 38028 ft | 496 kts | 83° |
| 2026-05-06 12:39 | 53.90516 | -31.50444 | 38022 ft | 496 kts | 83° |
| 2026-05-06 12:40 | 53.91317 | -31.38805 | 38023 ft | 495 kts | 83° |
| 2026-05-06 12:40 | 53.92105 | -31.27191 | 38018 ft | 494 kts | 83° |
| 2026-05-06 12:41 | 53.92882 | -31.15581 | 38020 ft | 494 kts | 83° |
| 2026-05-06 12:41 | 53.93647 | -31.03971 | 38018 ft | 494 kts | 84° |
| 2026-05-06 12:42 | 53.94400 | -30.92363 | 38020 ft | 494 kts | 84° |
| 2026-05-06 12:42 | 53.95135 | -30.80864 | 38014 ft | 494 kts | 84° |
| 2026-05-06 12:43 | 53.95871 | -30.69171 | 38015 ft | 493 kts | 84° |
| 2026-05-06 12:43 | 53.96590 | -30.57571 | 38017 ft | 493 kts | 84° |
| 2026-05-06 12:44 | 53.97294 | -30.46025 | 38016 ft | 494 kts | 84° |
| 2026-05-06 12:44 | 53.97991 | -30.34409 | 38016 ft | 494 kts | 84° |
| 2026-05-06 12:45 | 53.98681 | -30.22759 | 38016 ft | 496 kts | 85° |
| 2026-05-06 12:46 | 53.99709 | -30.05213 | 38021 ft | 497 kts | 83° |
| 2026-05-06 12:46 | 54.00886 | -29.93623 | 38026 ft | 497 kts | 77° |
| 2026-05-06 12:47 | 54.02507 | -29.82179 | 38025 ft | 496 kts | 76° |
| 2026-05-06 12:47 | 54.04151 | -29.70751 | 38040 ft | 496 kts | 76° |
| 2026-05-06 12:48 | 54.05773 | -29.59328 | 38035 ft | 496 kts | 77° |
| 2026-05-06 12:48 | 54.07383 | -29.47878 | 38039 ft | 497 kts | 77° |
| 2026-05-06 12:49 | 54.08980 | -29.36410 | 38043 ft | 498 kts | 77° |
| 2026-05-06 12:49 | 54.10566 | -29.24932 | 38048 ft | 497 kts | 77° |
| 2026-05-06 12:50 | 54.12139 | -29.13468 | 38050 ft | 495 kts | 77° |
| 2026-05-06 12:50 | 54.13696 | -29.02029 | 38052 ft | 494 kts | 77° |
| 2026-05-06 12:51 | 54.15238 | -28.90604 | 38053 ft | 494 kts | 77° |
| 2026-05-06 12:51 | 54.16771 | -28.79160 | 38057 ft | 494 kts | 77° |
| 2026-05-06 12:52 | 54.18293 | -28.67713 | 38057 ft | 493 kts | 77° |
| 2026-05-06 12:52 | 54.19802 | -28.56285 | 38051 ft | 492 kts | 78° |
| 2026-05-06 12:53 | 54.21298 | -28.44845 | 38057 ft | 492 kts | 78° |
| 2026-05-06 12:53 | 54.22783 | -28.33404 | 38060 ft | 492 kts | 78° |
| 2026-05-06 12:54 | 54.24247 | -28.22034 | 38070 ft | 492 kts | 78° |
| 2026-05-06 12:54 | 54.25721 | -28.10492 | 38067 ft | 492 kts | 78° |
| 2026-05-06 12:55 | 54.27174 | -27.99025 | 38068 ft | 492 kts | 78° |
| 2026-05-06 12:55 | 54.28616 | -27.87547 | 38069 ft | 492 kts | 78° |
| 2026-05-06 12:56 | 54.30046 | -27.76069 | 38071 ft | 492 kts | 78° |
| 2026-05-06 12:56 | 54.31468 | -27.64571 | 38070 ft | 492 kts | 78° |
| 2026-05-06 12:57 | 54.32878 | -27.53078 | 38071 ft | 493 kts | 78° |
| 2026-05-06 12:57 | 54.34267 | -27.41634 | 38074 ft | 493 kts | 79° |
| 2026-05-06 12:58 | 54.35655 | -27.30109 | 38071 ft | 493 kts | 79° |
| 2026-05-06 12:58 | 54.37033 | -27.18577 | 38071 ft | 493 kts | 79° |
| 2026-05-06 12:59 | 54.38401 | -27.07040 | 38070 ft | 493 kts | 79° |
| 2026-05-06 12:59 | 54.39758 | -26.95487 | 38071 ft | 493 kts | 79° |
| 2026-05-06 13:00 | 54.41102 | -26.83934 | 38070 ft | 493 kts | 79° |
| 2026-05-06 13:00 | 54.42438 | -26.72355 | 38077 ft | 493 kts | 79° |
| 2026-05-06 13:01 | 54.43761 | -26.60773 | 38078 ft | 493 kts | 79° |
| 2026-05-06 13:01 | 54.45074 | -26.49186 | 38072 ft | 493 kts | 80° |
| 2026-05-06 13:02 | 54.46374 | -26.37597 | 38073 ft | 493 kts | 80° |
| 2026-05-06 13:02 | 54.47665 | -26.25997 | 38068 ft | 493 kts | 80° |
| 2026-05-06 13:03 | 54.48942 | -26.14400 | 38070 ft | 493 kts | 80° |
| 2026-05-06 13:03 | 54.50209 | -26.02794 | 38069 ft | 493 kts | 80° |
| 2026-05-06 13:04 | 54.51464 | -25.91189 | 38070 ft | 492 kts | 80° |
| 2026-05-06 13:04 | 54.52708 | -25.79574 | 38066 ft | 492 kts | 81° |
| 2026-05-06 13:05 | 54.53940 | -25.67955 | 38067 ft | 492 kts | 81° |
| 2026-05-06 13:05 | 54.55161 | -25.56337 | 38066 ft | 492 kts | 81° |
| 2026-05-06 13:06 | 54.56372 | -25.44703 | 38061 ft | 492 kts | 81° |
| 2026-05-06 13:06 | 54.57368 | -25.35034 | 38064 ft | 492 kts | 81° |
| 2026-05-06 13:07 | 54.58557 | -25.23404 | 38061 ft | 492 kts | 81° |
| 2026-05-06 13:07 | 54.59734 | -25.11761 | 38061 ft | 492 kts | 81° |
| 2026-05-06 13:08 | 54.60901 | -25.00113 | 38059 ft | 492 kts | 81° |
| 2026-05-06 13:08 | 54.62054 | -24.88471 | 38056 ft | 492 kts | 81° |
| 2026-05-06 13:09 | 54.63198 | -24.76814 | 38055 ft | 492 kts | 81° |
| 2026-05-06 13:09 | 54.64331 | -24.65144 | 38053 ft | 492 kts | 81° |
| 2026-05-06 13:10 | 54.65452 | -24.53482 | 38048 ft | 492 kts | 82° |
| 2026-05-06 13:10 | 54.66561 | -24.41809 | 38049 ft | 492 kts | 81° |
| 2026-05-06 13:11 | 54.67660 | -24.30096 | 38050 ft | 493 kts | 81° |
| 2026-05-06 13:11 | 54.68752 | -24.18380 | 38047 ft | 493 kts | 82° |
| 2026-05-06 13:12 | 54.69831 | -24.06658 | 38045 ft | 493 kts | 82° |
| 2026-05-06 13:12 | 54.70900 | -23.94927 | 38041 ft | 493 kts | 82° |
| 2026-05-06 13:13 | 54.71952 | -23.83207 | 38039 ft | 493 kts | 82° |
| 2026-05-06 13:13 | 54.72997 | -23.71455 | 38037 ft | 493 kts | 82° |
| 2026-05-06 13:14 | 54.74032 | -23.59709 | 38038 ft | 493 kts | 82° |
| 2026-05-06 13:14 | 54.75056 | -23.47940 | 38032 ft | 493 kts | 82° |
| 2026-05-06 13:15 | 54.76060 | -23.36264 | 38030 ft | 493 kts | 82° |
| 2026-05-06 13:15 | 54.77065 | -23.24404 | 38033 ft | 494 kts | 82° |
| 2026-05-06 13:16 | 54.78048 | -23.12700 | 38025 ft | 494 kts | 82° |
| 2026-05-06 13:16 | 54.79028 | -23.00901 | 38025 ft | 494 kts | 82° |
| 2026-05-06 13:17 | 54.79995 | -22.89096 | 38019 ft | 494 kts | 82° |
| 2026-05-06 13:17 | 54.80950 | -22.77295 | 38021 ft | 494 kts | 82° |
| 2026-05-06 13:18 | 54.81893 | -22.65486 | 38011 ft | 494 kts | 82° |
| 2026-05-06 13:18 | 54.82825 | -22.53671 | 38020 ft | 494 kts | 82° |
| 2026-05-06 13:19 | 54.83746 | -22.41848 | 38025 ft | 494 kts | 83° |
| 2026-05-06 13:19 | 54.84656 | -22.30015 | 38025 ft | 494 kts | 83° |
| 2026-05-06 13:20 | 54.85551 | -22.18179 | 38014 ft | 494 kts | 83° |
| 2026-05-06 13:20 | 54.86439 | -22.06331 | 38014 ft | 494 kts | 83° |
| 2026-05-06 13:21 | 54.87316 | -21.94477 | 38016 ft | 494 kts | 83° |
| 2026-05-06 13:21 | 54.88180 | -21.82611 | 38015 ft | 494 kts | 83° |
| 2026-05-06 13:22 | 54.89033 | -21.70740 | 38008 ft | 494 kts | 83° |
| 2026-05-06 13:22 | 54.89873 | -21.58868 | 38000 ft | 494 kts | 83° |
| 2026-05-06 13:23 | 54.90704 | -21.46986 | 38007 ft | 494 kts | 83° |
| 2026-05-06 13:23 | 54.91521 | -21.35114 | 37999 ft | 494 kts | 83° |
| 2026-05-06 13:24 | 54.92328 | -21.23232 | 37996 ft | 494 kts | 83° |
| 2026-05-06 13:24 | 54.93122 | -21.11333 | 37997 ft | 495 kts | 83° |
| 2026-05-06 13:25 | 54.93905 | -20.99420 | 37999 ft | 495 kts | 83° |
| 2026-05-06 13:25 | 54.94680 | -20.87487 | 37998 ft | 496 kts | 83° |
| 2026-05-06 13:26 | 54.95442 | -20.75560 | 38001 ft | 496 kts | 83° |
| 2026-05-06 13:26 | 54.96192 | -20.63625 | 37999 ft | 496 kts | 83° |
| 2026-05-06 13:27 | 54.96929 | -20.51669 | 38000 ft | 497 kts | 83° |
| 2026-05-06 13:27 | 54.97654 | -20.39769 | 37993 ft | 497 kts | 83° |
| 2026-05-06 13:28 | 54.98373 | -20.27786 | 37987 ft | 497 kts | 83° |
| 2026-05-06 13:28 | 54.99080 | -20.15794 | 37986 ft | 497 kts | 84° |
| 2026-05-06 13:29 | 54.99772 | -20.03797 | 37995 ft | 497 kts | 84° |
| 2026-05-06 13:29 | 55.00170 | -19.91728 | 37989 ft | 499 kts | 87° |
| 2026-05-06 13:30 | 55.00397 | -19.79627 | 37990 ft | 499 kts | 88° |
| 2026-05-06 13:30 | 55.00612 | -19.67512 | 37989 ft | 499 kts | 88° |
| 2026-05-06 13:31 | 55.00819 | -19.55405 | 37983 ft | 499 kts | 88° |
| 2026-05-06 13:31 | 55.01015 | -19.43295 | 37976 ft | 500 kts | 88° |
| 2026-05-06 13:32 | 55.01199 | -19.31166 | 37981 ft | 500 kts | 88° |
| 2026-05-06 13:32 | 55.01375 | -19.19043 | 37984 ft | 500 kts | 88° |
| 2026-05-06 13:33 | 55.01538 | -19.06920 | 37985 ft | 500 kts | 88° |
| 2026-05-06 13:33 | 55.01688 | -18.94786 | 37986 ft | 500 kts | 88° |
| 2026-05-06 13:34 | 55.01825 | -18.82653 | 37996 ft | 501 kts | 88° |
| 2026-05-06 13:34 | 55.01952 | -18.70489 | 37987 ft | 501 kts | 88° |
| 2026-05-06 13:35 | 55.02067 | -18.58322 | 37977 ft | 501 kts | 88° |
| 2026-05-06 13:35 | 55.02169 | -18.46151 | 37984 ft | 502 kts | 88° |
| 2026-05-06 13:36 | 55.02259 | -18.33977 | 37985 ft | 502 kts | 88° |
| 2026-05-06 13:36 | 55.02336 | -18.21783 | 37993 ft | 503 kts | 88° |
| 2026-05-06 13:37 | 55.02402 | -18.09580 | 37985 ft | 503 kts | 88° |
| 2026-05-06 13:37 | 55.02456 | -17.97368 | 37985 ft | 503 kts | 88° |
| 2026-05-06 13:38 | 55.02498 | -17.85167 | 37975 ft | 503 kts | 89° |
| 2026-05-06 13:38 | 55.02527 | -17.72953 | 37981 ft | 503 kts | 89° |
| 2026-05-06 13:39 | 55.02543 | -17.60726 | 37978 ft | 504 kts | 89° |
| 2026-05-06 13:39 | 55.02547 | -17.48521 | 37981 ft | 502 kts | 89° |
| 2026-05-06 13:40 | 55.02540 | -17.36340 | 37978 ft | 502 kts | 89° |
| 2026-05-06 13:40 | 55.02521 | -17.24152 | 37986 ft | 502 kts | 89° |
| 2026-05-06 13:41 | 55.02490 | -17.11965 | 37988 ft | 502 kts | 89° |
| 2026-05-06 13:41 | 55.02446 | -16.99866 | 37979 ft | 502 kts | 89° |
| 2026-05-06 13:42 | 55.02390 | -16.87676 | 37978 ft | 502 kts | 89° |
| 2026-05-06 13:42 | 55.02321 | -16.75493 | 37979 ft | 502 kts | 89° |
| 2026-05-06 13:43 | 55.02241 | -16.63296 | 37981 ft | 502 kts | 89° |
| 2026-05-06 13:43 | 55.02148 | -16.51102 | 37982 ft | 503 kts | 89° |
| 2026-05-06 13:44 | 55.02043 | -16.38880 | 37976 ft | 503 kts | 89° |
| 2026-05-06 13:44 | 55.01926 | -16.26668 | 37982 ft | 503 kts | 90° |
| 2026-05-06 13:45 | 55.01797 | -16.14457 | 37986 ft | 503 kts | 90° |
| 2026-05-06 13:45 | 55.01579 | -15.96142 | 37990 ft | 504 kts | 90° |
| 2026-05-06 13:46 | 55.01420 | -15.83914 | 37990 ft | 504 kts | 90° |
| 2026-05-06 13:46 | 55.01247 | -15.71684 | 37986 ft | 504 kts | 90° |
| 2026-05-06 13:47 | 55.01063 | -15.59465 | 37988 ft | 504 kts | 90° |
| 2026-05-06 13:47 | 55.00866 | -15.47244 | 37980 ft | 504 kts | 90° |
| 2026-05-06 13:48 | 55.00658 | -15.35010 | 37990 ft | 504 kts | 90° |
| 2026-05-06 13:48 | 55.00436 | -15.22777 | 37988 ft | 504 kts | 90° |
| 2026-05-06 13:49 | 55.00203 | -15.10554 | 37988 ft | 504 kts | 91° |
| 2026-05-06 13:49 | 54.99996 | -14.98334 | 37990 ft | 504 kts | 89° |
| 2026-05-06 13:50 | 55.00022 | -14.86105 | 37991 ft | 504 kts | 88° |
| 2026-05-06 13:50 | 55.00062 | -14.73880 | 37990 ft | 504 kts | 88° |
| 2026-05-06 13:51 | 55.00081 | -14.63718 | 37994 ft | 504 kts | 88° |
| 2026-05-06 13:51 | 55.00091 | -14.51474 | 37993 ft | 504 kts | 89° |
| 2026-05-06 13:52 | 55.00087 | -14.39248 | 37993 ft | 504 kts | 89° |
| 2026-05-06 13:52 | 55.00072 | -14.27009 | 38004 ft | 505 kts | 89° |
| 2026-05-06 13:53 | 55.00042 | -14.14743 | 37992 ft | 505 kts | 89° |
| 2026-05-06 13:53 | 54.99769 | -14.02493 | 37993 ft | 506 kts | 95° |
| 2026-05-06 13:54 | 54.98717 | -13.90358 | 37973 ft | 507 kts | 102° |
| 2026-05-06 13:54 | 54.97126 | -13.78394 | 37996 ft | 506 kts | 103° |
| 2026-05-06 13:55 | 54.95505 | -13.66460 | 38007 ft | 506 kts | 103° |
| 2026-05-06 13:55 | 54.93883 | -13.54532 | 38001 ft | 506 kts | 103° |
| 2026-05-06 13:56 | 54.92253 | -13.42599 | 38002 ft | 506 kts | 103° |
| 2026-05-06 13:56 | 54.90613 | -13.30681 | 38003 ft | 506 kts | 103° |
| 2026-05-06 13:57 | 54.88962 | -13.18766 | 38003 ft | 506 kts | 103° |
| 2026-05-06 13:57 | 54.87299 | -13.06865 | 38006 ft | 506 kts | 103° |
| 2026-05-06 13:58 | 54.85628 | -12.94994 | 38006 ft | 506 kts | 103° |
| 2026-05-06 13:58 | 54.83942 | -12.83117 | 37995 ft | 506 kts | 103° |
| 2026-05-06 13:59 | 54.82244 | -12.71257 | 38005 ft | 506 kts | 103° |
| 2026-05-06 13:59 | 54.80540 | -12.59415 | 38006 ft | 506 kts | 103° |
| 2026-05-06 14:00 | 54.78820 | -12.47566 | 38012 ft | 506 kts | 103° |
| 2026-05-06 14:00 | 54.77099 | -12.35794 | 38007 ft | 507 kts | 103° |
| 2026-05-06 14:01 | 54.75354 | -12.23952 | 38006 ft | 507 kts | 103° |
| 2026-05-06 14:01 | 54.73599 | -12.12130 | 38008 ft | 506 kts | 103° |
| 2026-05-06 14:02 | 54.71832 | -12.00312 | 38008 ft | 506 kts | 103° |
| 2026-05-06 14:02 | 54.70054 | -11.88521 | 38015 ft | 506 kts | 103° |
| 2026-05-06 14:03 | 54.68263 | -11.76729 | 38004 ft | 506 kts | 103° |
| 2026-05-06 14:03 | 54.66465 | -11.64970 | 38013 ft | 505 kts | 103° |
| 2026-05-06 14:04 | 54.64660 | -11.53236 | 38014 ft | 505 kts | 103° |
| 2026-05-06 14:04 | 54.62842 | -11.41510 | 38017 ft | 505 kts | 104° |
| 2026-05-06 14:05 | 54.61013 | -11.29795 | 38019 ft | 505 kts | 104° |
| 2026-05-06 14:05 | 54.59173 | -11.18093 | 38016 ft | 505 kts | 104° |
| 2026-05-06 14:06 | 54.57319 | -11.06387 | 38017 ft | 505 kts | 104° |
| 2026-05-06 14:06 | 54.55457 | -10.94717 | 38019 ft | 505 kts | 104° |
| 2026-05-06 14:07 | 54.53581 | -10.83036 | 38021 ft | 505 kts | 104° |
| 2026-05-06 14:07 | 54.51694 | -10.71378 | 38016 ft | 504 kts | 104° |
| 2026-05-06 14:08 | 54.49802 | -10.59760 | 38017 ft | 503 kts | 104° |
| 2026-05-06 14:08 | 54.47899 | -10.48149 | 38023 ft | 503 kts | 104° |
| 2026-05-06 14:09 | 54.45987 | -10.36556 | 38023 ft | 503 kts | 104° |
| 2026-05-06 14:09 | 54.44062 | -10.24974 | 38023 ft | 503 kts | 104° |
| 2026-05-06 14:10 | 54.42126 | -10.13400 | 38033 ft | 503 kts | 104° |
| 2026-05-06 14:10 | 54.40178 | -10.01833 | 38026 ft | 503 kts | 104° |
| 2026-05-06 14:11 | 54.38222 | -9.90292 | 38027 ft | 504 kts | 105° |
| 2026-05-06 14:11 | 54.36250 | -9.78733 | 38053 ft | 507 kts | 105° |
| 2026-05-06 14:12 | 54.35254 | -9.72923 | 38351 ft | 506 kts | 105° |
| 2026-05-06 14:12 | 54.34264 | -9.67161 | 38773 ft | 502 kts | 105° |
| 2026-05-06 14:12 | 54.33272 | -9.61409 | 38990 ft | 502 kts | 105° |
| 2026-05-06 14:12 | 54.32277 | -9.55662 | 38995 ft | 502 kts | 105° |
| 2026-05-06 14:13 | 54.30279 | -9.44189 | 39001 ft | 502 kts | 105° |
| 2026-05-06 14:13 | 54.28272 | -9.32734 | 38992 ft | 502 kts | 105° |
| 2026-05-06 14:14 | 54.26253 | -9.21274 | 39001 ft | 502 kts | 106° |
| 2026-05-06 14:14 | 54.24239 | -9.09918 | 38993 ft | 502 kts | 106° |
| 2026-05-06 14:15 | 54.22200 | -8.98492 | 39009 ft | 502 kts | 106° |
| 2026-05-06 14:15 | 54.20147 | -8.87061 | 39010 ft | 503 kts | 106° |
| 2026-05-06 14:16 | 54.18082 | -8.75638 | 39016 ft | 503 kts | 106° |
| 2026-05-06 14:16 | 54.16010 | -8.64247 | 39013 ft | 501 kts | 106° |
| 2026-05-06 14:17 | 54.13931 | -8.52877 | 38978 ft | 501 kts | 106° |
| 2026-05-06 14:17 | 54.11842 | -8.41525 | 38983 ft | 501 kts | 107° |
| 2026-05-06 14:18 | 54.09741 | -8.30180 | 38979 ft | 501 kts | 107° |
| 2026-05-06 14:18 | 54.07630 | -8.18853 | 38979 ft | 501 kts | 107° |
| 2026-05-06 14:19 | 54.05507 | -8.07533 | 38979 ft | 501 kts | 107° |
| 2026-05-06 14:19 | 54.03378 | -7.96242 | 38982 ft | 501 kts | 107° |
| 2026-05-06 14:20 | 54.01236 | -7.84949 | 38984 ft | 501 kts | 107° |
| 2026-05-06 14:20 | 53.99086 | -7.73686 | 38975 ft | 500 kts | 107° |
| 2026-05-06 14:21 | 53.96927 | -7.62446 | 38980 ft | 500 kts | 107° |
| 2026-05-06 14:21 | 53.94759 | -7.51219 | 38981 ft | 500 kts | 107° |
| 2026-05-06 14:22 | 53.92578 | -7.39993 | 38984 ft | 500 kts | 107° |
| 2026-05-06 14:22 | 53.90392 | -7.28796 | 38987 ft | 499 kts | 108° |
| 2026-05-06 14:23 | 53.88193 | -7.17612 | 38985 ft | 499 kts | 108° |
| 2026-05-06 14:23 | 53.85983 | -7.06433 | 38987 ft | 499 kts | 108° |
| 2026-05-06 14:24 | 53.83768 | -6.95289 | 38987 ft | 499 kts | 108° |
| 2026-05-06 14:24 | 53.81538 | -6.84139 | 38988 ft | 499 kts | 108° |
| 2026-05-06 14:25 | 53.79302 | -6.73002 | 38989 ft | 499 kts | 108° |
| 2026-05-06 14:25 | 53.77054 | -6.61891 | 38998 ft | 499 kts | 108° |
| 2026-05-06 14:26 | 53.74800 | -6.50812 | 38996 ft | 499 kts | 108° |
| 2026-05-06 14:26 | 53.72539 | -6.39760 | 39006 ft | 499 kts | 109° |
| 2026-05-06 14:27 | 53.70262 | -6.28688 | 39003 ft | 499 kts | 109° |
| 2026-05-06 14:27 | 53.67976 | -6.17623 | 39011 ft | 499 kts | 109° |
| 2026-05-06 14:28 | 53.65676 | -6.06562 | 39011 ft | 499 kts | 109° |
| 2026-05-06 14:28 | 53.63384 | -5.95602 | 39018 ft | 499 kts | 109° |
| 2026-05-06 14:29 | 53.61068 | -5.84577 | 39016 ft | 499 kts | 109° |
| 2026-05-06 14:29 | 53.58742 | -5.73564 | 39016 ft | 498 kts | 109° |
| 2026-05-06 14:30 | 53.56428 | -5.62561 | 39020 ft | 498 kts | 108° |
| 2026-05-06 14:30 | 53.54602 | -5.51325 | 39025 ft | 497 kts | 101° |
| 2026-05-06 14:31 | 53.53512 | -5.39839 | 39027 ft | 497 kts | 95° |
| 2026-05-06 14:31 | 53.53112 | -5.28238 | 39027 ft | 496 kts | 91° |
| 2026-05-06 14:32 | 53.52874 | -5.16632 | 39030 ft | 496 kts | 91° |
| 2026-05-06 14:32 | 53.52542 | -5.05036 | 39026 ft | 496 kts | 92° |
| 2026-05-06 14:33 | 53.52159 | -4.93444 | 39027 ft | 496 kts | 92° |
| 2026-05-06 14:33 | 53.51774 | -4.81860 | 39026 ft | 496 kts | 92° |
| 2026-05-06 14:34 | 53.51385 | -4.70273 | 39020 ft | 496 kts | 92° |
| 2026-05-06 14:34 | 53.50988 | -4.58674 | 39021 ft | 497 kts | 93° |
| 2026-05-06 14:35 | 53.50576 | -4.47048 | 39018 ft | 498 kts | 93° |
| 2026-05-06 14:35 | 53.50225 | -4.37387 | 39017 ft | 498 kts | 93° |
| 2026-05-06 14:36 | 53.49794 | -4.25770 | 39023 ft | 498 kts | 93° |
| 2026-05-06 14:36 | 53.49350 | -4.14149 | 39023 ft | 498 kts | 93° |
| 2026-05-06 14:37 | 53.48732 | -4.02551 | 39022 ft | 498 kts | 98° |
| 2026-05-06 14:37 | 53.47391 | -3.91144 | 39019 ft | 498 kts | 105° |
| 2026-05-06 14:38 | 53.45322 | -3.80044 | 39021 ft | 497 kts | 109° |
| 2026-05-06 14:38 | 53.43122 | -3.69029 | 39022 ft | 498 kts | 107° |
| 2026-05-06 14:39 | 53.41499 | -3.57727 | 39025 ft | 498 kts | 100° |
| 2026-05-06 14:39 | 53.40619 | -3.46183 | 39026 ft | 499 kts | 94° |
| 2026-05-06 14:40 | 53.40123 | -3.34567 | 39021 ft | 499 kts | 94° |
| 2026-05-06 14:40 | 53.39621 | -3.22942 | 39020 ft | 499 kts | 94° |
| 2026-05-06 14:41 | 53.39094 | -3.11315 | 39019 ft | 499 kts | 94° |
| 2026-05-06 14:41 | 53.38655 | -2.99660 | 39021 ft | 500 kts | 94° |
| 2026-05-06 14:42 | 53.38225 | -2.88021 | 39020 ft | 500 kts | 94° |
| 2026-05-06 14:42 | 53.37776 | -2.76378 | 39031 ft | 500 kts | 94° |
| 2026-05-06 14:43 | 53.37312 | -2.64734 | 39038 ft | 500 kts | 94° |
| 2026-05-06 14:43 | 53.36840 | -2.53178 | 39043 ft | 500 kts | 94° |
| 2026-05-06 14:44 | 53.36351 | -2.41461 | 39049 ft | 500 kts | 94° |
| 2026-05-06 14:45 | 53.35457 | -2.24096 | 39044 ft | 501 kts | 98° |
| 2026-05-06 14:45 | 53.34314 | -2.12580 | 39047 ft | 500 kts | 100° |
| 2026-05-06 14:46 | 53.33121 | -2.01097 | 39046 ft | 500 kts | 100° |
| 2026-05-06 14:46 | 53.31917 | -1.89564 | 39043 ft | 500 kts | 100° |
| 2026-05-06 14:47 | 53.30714 | -1.78102 | 39041 ft | 499 kts | 101° |
| 2026-05-06 14:47 | 53.29509 | -1.66731 | 39042 ft | 499 kts | 101° |
| 2026-05-06 14:48 | 53.28282 | -1.55286 | 39045 ft | 499 kts | 101° |
| 2026-05-06 14:48 | 53.27043 | -1.43841 | 39044 ft | 500 kts | 101° |
| 2026-05-06 14:49 | 53.25793 | -1.32397 | 39045 ft | 500 kts | 101° |
| 2026-05-06 14:49 | 53.24533 | -1.20965 | 39033 ft | 500 kts | 101° |
| 2026-05-06 14:50 | 53.23262 | -1.09533 | 39042 ft | 500 kts | 101° |
| 2026-05-06 14:50 | 53.21985 | -0.98124 | 39043 ft | 500 kts | 101° |
| 2026-05-06 14:51 | 53.20692 | -0.86708 | 39046 ft | 501 kts | 102° |
| 2026-05-06 14:51 | 53.19385 | -0.75310 | 39045 ft | 501 kts | 102° |
| 2026-05-06 14:52 | 53.18067 | -0.63904 | 39051 ft | 501 kts | 102° |
| 2026-05-06 14:52 | 53.16737 | -0.52483 | 39047 ft | 501 kts | 102° |
| 2026-05-06 14:53 | 53.15397 | -0.41066 | 39045 ft | 501 kts | 102° |
| 2026-05-06 14:53 | 53.14045 | -0.29644 | 39046 ft | 501 kts | 102° |
| 2026-05-06 14:54 | 53.12685 | -0.18260 | 39047 ft | 501 kts | 102° |
| 2026-05-06 14:54 | 53.11314 | -0.06881 | 39047 ft | 501 kts | 102° |
| 2026-05-06 14:55 | 53.09935 | 0.04491 | 39016 ft | 501 kts | 102° |
| 2026-05-06 14:55 | 53.08542 | 0.15857 | 39016 ft | 501 kts | 103° |
| 2026-05-06 14:56 | 53.07137 | 0.27221 | 39018 ft | 501 kts | 103° |
| 2026-05-06 14:56 | 53.05723 | 0.38570 | 39017 ft | 501 kts | 103° |
| 2026-05-06 14:57 | 53.04298 | 0.49918 | 39002 ft | 501 kts | 103° |
| 2026-05-06 14:57 | 53.02866 | 0.61244 | 38996 ft | 499 kts | 103° |
| 2026-05-06 14:58 | 53.01426 | 0.72516 | 38999 ft | 498 kts | 103° |
| 2026-05-06 14:58 | 52.99980 | 0.83752 | 38990 ft | 497 kts | 103° |
| 2026-05-06 14:59 | 52.98506 | 0.94983 | 38994 ft | 498 kts | 105° |
| 2026-05-06 14:59 | 52.96535 | 1.05991 | 38993 ft | 497 kts | 111° |
| 2026-05-06 15:00 | 52.94101 | 1.16777 | 38992 ft | 497 kts | 112° |
| 2026-05-06 15:00 | 52.91669 | 1.27441 | 38996 ft | 497 kts | 112° |
| 2026-05-06 15:01 | 52.89218 | 1.38167 | 38997 ft | 497 kts | 112° |
| 2026-05-06 15:01 | 52.86761 | 1.48885 | 38996 ft | 497 kts | 112° |
| 2026-05-06 15:02 | 52.84297 | 1.59577 | 38993 ft | 495 kts | 112° |
| 2026-05-06 15:02 | 52.81834 | 1.70219 | 38987 ft | 495 kts | 112° |
| 2026-05-06 15:03 | 52.79361 | 1.80850 | 38992 ft | 495 kts | 112° |
| 2026-05-06 15:03 | 52.76878 | 1.91470 | 38986 ft | 495 kts | 112° |
| 2026-05-06 15:04 | 52.74390 | 2.02060 | 38969 ft | 494 kts | 113° |
| 2026-05-06 15:04 | 52.71898 | 2.12620 | 38972 ft | 492 kts | 113° |
| 2026-05-06 15:05 | 52.69400 | 2.23146 | 38972 ft | 492 kts | 113° |
| 2026-05-06 15:05 | 52.66893 | 2.33658 | 38973 ft | 492 kts | 113° |
| 2026-05-06 15:06 | 52.64380 | 2.44148 | 38969 ft | 492 kts | 113° |
| 2026-05-06 15:06 | 52.61854 | 2.54648 | 38965 ft | 493 kts | 114° |
| 2026-05-06 15:07 | 52.59311 | 2.65166 | 39147 ft | 496 kts | 114° |
| 2026-05-06 15:07 | 52.58032 | 2.70430 | 39461 ft | 494 kts | 114° |
| 2026-05-06 15:07 | 52.56758 | 2.75667 | 39744 ft | 493 kts | 114° |
| 2026-05-06 15:07 | 52.55513 | 2.80927 | 39933 ft | 493 kts | 111° |
| 2026-05-06 15:08 | 52.54416 | 2.86278 | 39945 ft | 494 kts | 109° |
| 2026-05-06 15:08 | 52.52638 | 2.97210 | 39953 ft | 495 kts | 106° |
| 2026-05-06 15:09 | 52.50942 | 3.08178 | 39944 ft | 495 kts | 106° |
| 2026-05-06 15:09 | 52.49232 | 3.19133 | 39943 ft | 495 kts | 106° |
| 2026-05-06 15:10 | 52.47505 | 3.30094 | 39932 ft | 495 kts | 106° |
| 2026-05-06 15:10 | 52.45770 | 3.41015 | 39934 ft | 494 kts | 106° |
| 2026-05-06 15:11 | 52.44028 | 3.51927 | 39930 ft | 494 kts | 107° |
| 2026-05-06 15:11 | 52.42274 | 3.62840 | 39761 ft | 495 kts | 107° |
| 2026-05-06 15:11 | 52.41391 | 3.68302 | 39644 ft | 495 kts | 107° |
| 2026-05-06 15:12 | 52.40505 | 3.73753 | 39531 ft | 494 kts | 107° |
| 2026-05-06 15:12 | 52.39620 | 3.79196 | 39409 ft | 495 kts | 107° |
| 2026-05-06 15:12 | 52.38728 | 3.84651 | 39295 ft | 495 kts | 107° |
| 2026-05-06 15:12 | 52.37848 | 3.90006 | 39191 ft | 494 kts | 107° |
| 2026-05-06 15:13 | 52.36954 | 3.95453 | 39072 ft | 494 kts | 107° |
| 2026-05-06 15:13 | 52.35163 | 4.06308 | 38944 ft | 493 kts | 107° |
| 2026-05-06 15:14 | 52.33365 | 4.17141 | 38909 ft | 493 kts | 107° |
| 2026-05-06 15:14 | 52.31540 | 4.28059 | 38904 ft | 493 kts | 107° |
| 2026-05-06 15:15 | 52.29734 | 4.38791 | 38892 ft | 493 kts | 107° |
| 2026-05-06 15:15 | 52.27904 | 4.49601 | 38891 ft | 493 kts | 107° |
| 2026-05-06 15:16 | 52.26064 | 4.60403 | 38886 ft | 493 kts | 108° |
| 2026-05-06 15:16 | 52.24215 | 4.71190 | 38911 ft | 493 kts | 108° |
| 2026-05-06 15:17 | 52.22356 | 4.81961 | 38910 ft | 493 kts | 108° |
| 2026-05-06 15:17 | 52.20489 | 4.92725 | 38906 ft | 493 kts | 108° |
| 2026-05-06 15:18 | 52.18615 | 5.03464 | 38899 ft | 492 kts | 108° |
| 2026-05-06 15:18 | 52.16724 | 5.14232 | 38884 ft | 492 kts | 108° |
| 2026-05-06 15:19 | 52.14824 | 5.24977 | 38884 ft | 492 kts | 108° |
| 2026-05-06 15:19 | 52.12915 | 5.35715 | 38884 ft | 492 kts | 108° |
| 2026-05-06 15:20 | 52.11307 | 5.44715 | 38876 ft | 493 kts | 108° |
| 2026-05-06 15:20 | 52.09380 | 5.55442 | 38882 ft | 493 kts | 108° |
| 2026-05-06 15:21 | 52.07443 | 5.66154 | 38883 ft | 493 kts | 109° |
| 2026-05-06 15:21 | 52.05497 | 5.76860 | 38883 ft | 493 kts | 109° |
| 2026-05-06 15:22 | 52.03541 | 5.87557 | 38887 ft | 493 kts | 109° |
| 2026-05-06 15:22 | 52.01582 | 5.98225 | 38875 ft | 490 kts | 109° |
| 2026-05-06 15:23 | 51.99625 | 6.08771 | 38881 ft | 493 kts | 110° |
| 2026-05-06 15:23 | 51.96967 | 6.18975 | 38880 ft | 489 kts | 121° |
| 2026-05-06 15:24 | 51.93198 | 6.28078 | 38880 ft | 484 kts | 132° |
| 2026-05-06 15:24 | 51.88485 | 6.35803 | 38865 ft | 480 kts | 143° |
| 2026-05-06 15:25 | 51.83304 | 6.42580 | 38870 ft | 478 kts | 144° |
| 2026-05-06 15:25 | 51.78111 | 6.49298 | 38874 ft | 478 kts | 144° |
| 2026-05-06 15:26 | 51.72958 | 6.55974 | 38335 ft | 471 kts | 144° |
| 2026-05-06 15:26 | 51.70389 | 6.59297 | 37493 ft | 474 kts | 144° |
| 2026-05-06 15:26 | 51.67808 | 6.62629 | 36747 ft | 476 kts | 144° |
| 2026-05-06 15:26 | 51.65228 | 6.65958 | 36120 ft | 475 kts | 143° |
| 2026-05-06 15:27 | 51.62650 | 6.69283 | 35516 ft | 474 kts | 143° |
| 2026-05-06 15:27 | 51.60084 | 6.72589 | 34989 ft | 471 kts | 143° |
| 2026-05-06 15:27 | 51.57544 | 6.75860 | 34682 ft | 463 kts | 143° |
| 2026-05-06 15:27 | 51.55040 | 6.79083 | 34228 ft | 460 kts | 143° |
| 2026-05-06 15:28 | 51.52536 | 6.82294 | 33577 ft | 461 kts | 143° |
| 2026-05-06 15:28 | 51.50030 | 6.85500 | 32834 ft | 461 kts | 143° |
| 2026-05-06 15:28 | 51.47518 | 6.88709 | 32100 ft | 462 kts | 143° |
| 2026-05-06 15:28 | 51.45006 | 6.91915 | 31373 ft | 462 kts | 143° |
| 2026-05-06 15:29 | 51.42482 | 6.95133 | 30668 ft | 463 kts | 142° |
| 2026-05-06 15:29 | 51.39967 | 6.98338 | 30101 ft | 461 kts | 142° |
| 2026-05-06 15:29 | 51.37452 | 7.01539 | 29851 ft | 463 kts | 142° |
| 2026-05-06 15:30 | 51.32391 | 7.07963 | 29852 ft | 465 kts | 142° |
| 2026-05-06 15:30 | 51.29834 | 7.11145 | 29516 ft | 466 kts | 144° |
| 2026-05-06 15:30 | 51.27161 | 7.14120 | 28645 ft | 468 kts | 148° |
| 2026-05-06 15:30 | 51.24383 | 7.16814 | 27883 ft | 467 kts | 151° |
| 2026-05-06 15:31 | 51.21511 | 7.19229 | 27426 ft | 462 kts | 154° |
| 2026-05-06 15:31 | 51.18634 | 7.21504 | 26977 ft | 459 kts | 154° |
| 2026-05-06 15:31 | 51.15788 | 7.23766 | 26523 ft | 455 kts | 154° |
| 2026-05-06 15:32 | 51.10172 | 7.28250 | 25627 ft | 448 kts | 154° |
| 2026-05-06 15:32 | 51.07414 | 7.30526 | 25193 ft | 445 kts | 154° |
| 2026-05-06 15:32 | 51.04676 | 7.32791 | 24716 ft | 441 kts | 154° |
| 2026-05-06 15:32 | 51.01958 | 7.35036 | 24126 ft | 441 kts | 154° |
| 2026-05-06 15:33 | 50.99247 | 7.37272 | 23536 ft | 439 kts | 154° |
| 2026-05-06 15:33 | 50.96541 | 7.39502 | 22856 ft | 437 kts | 154° |
| 2026-05-06 15:33 | 50.93846 | 7.41716 | 22202 ft | 434 kts | 154° |
| 2026-05-06 15:33 | 50.91175 | 7.43908 | 21598 ft | 430 kts | 154° |
| 2026-05-06 15:34 | 50.88527 | 7.46077 | 20994 ft | 427 kts | 154° |
| 2026-05-06 15:34 | 50.85894 | 7.48230 | 20441 ft | 423 kts | 154° |
| 2026-05-06 15:34 | 50.83303 | 7.50346 | 20001 ft | 417 kts | 155° |
| 2026-05-06 15:34 | 50.80742 | 7.52438 | 19549 ft | 412 kts | 155° |
| 2026-05-06 15:35 | 50.78214 | 7.54510 | 19131 ft | 407 kts | 156° |
| 2026-05-06 15:35 | 50.75713 | 7.56545 | 18680 ft | 401 kts | 156° |
| 2026-05-06 15:35 | 50.73240 | 7.58550 | 18260 ft | 397 kts | 156° |
| 2026-05-06 15:35 | 50.70794 | 7.60532 | 17782 ft | 394 kts | 156° |
| 2026-05-06 15:36 | 50.68367 | 7.62498 | 17321 ft | 390 kts | 156° |
| 2026-05-06 15:36 | 50.65963 | 7.64445 | 16877 ft | 387 kts | 156° |
| 2026-05-06 15:36 | 50.63579 | 7.66373 | 16431 ft | 383 kts | 156° |
| 2026-05-06 15:36 | 50.61220 | 7.68276 | 16044 ft | 378 kts | 156° |
| 2026-05-06 15:37 | 50.58887 | 7.70158 | 15730 ft | 370 kts | 155° |
| 2026-05-06 15:37 | 50.56619 | 7.71989 | 15364 ft | 364 kts | 155° |
| 2026-05-06 15:37 | 50.54386 | 7.73788 | 15011 ft | 357 kts | 155° |
| 2026-05-06 15:37 | 50.52191 | 7.75554 | 14597 ft | 351 kts | 155° |
| 2026-05-06 15:38 | 50.50033 | 7.77288 | 14202 ft | 345 kts | 155° |
| 2026-05-06 15:38 | 50.47906 | 7.78995 | 13859 ft | 342 kts | 155° |
| 2026-05-06 15:38 | 50.45796 | 7.80707 | 13435 ft | 340 kts | 154° |
| 2026-05-06 15:38 | 50.43749 | 7.82585 | 12929 ft | 340 kts | 150° |
| 2026-05-06 15:39 | 50.41803 | 7.84663 | 12699 ft | 338 kts | 146° |
| 2026-05-06 15:39 | 50.39965 | 7.86897 | 12760 ft | 328 kts | 144° |
| 2026-05-06 15:39 | 50.38199 | 7.89103 | 12469 ft | 322 kts | 144° |
| 2026-05-06 15:39 | 50.36460 | 7.91269 | 12120 ft | 317 kts | 144° |
| 2026-05-06 15:40 | 50.34745 | 7.93396 | 11803 ft | 312 kts | 144° |
| 2026-05-06 15:40 | 50.33054 | 7.95487 | 11471 ft | 307 kts | 144° |
| 2026-05-06 15:40 | 50.31391 | 7.97545 | 11174 ft | 303 kts | 144° |
| 2026-05-06 15:40 | 50.29751 | 7.99574 | 10880 ft | 298 kts | 144° |
| 2026-05-06 15:41 | 50.28148 | 8.01591 | 10595 ft | 295 kts | 142° |
| 2026-05-06 15:41 | 50.26637 | 8.03751 | 10270 ft | 293 kts | 138° |
| 2026-05-06 15:41 | 50.25248 | 8.06079 | 9928 ft | 292 kts | 133° |
| 2026-05-06 15:41 | 50.23976 | 8.08571 | 9801 ft | 292 kts | 130° |
| 2026-05-06 15:42 | 50.22732 | 8.11098 | 9780 ft | 293 kts | 130° |
| 2026-05-06 15:42 | 50.21490 | 8.13625 | 9778 ft | 293 kts | 130° |
| 2026-05-06 15:42 | 50.20266 | 8.16118 | 9798 ft | 293 kts | 130° |
| 2026-05-06 15:42 | 50.19023 | 8.18638 | 9798 ft | 293 kts | 130° |
| 2026-05-06 15:43 | 50.17761 | 8.21193 | 9802 ft | 293 kts | 130° |
| 2026-05-06 15:43 | 50.16525 | 8.23695 | 9802 ft | 293 kts | 130° |
| 2026-05-06 15:43 | 50.15278 | 8.26211 | 9792 ft | 293 kts | 130° |
| 2026-05-06 15:43 | 50.14032 | 8.28729 | 9798 ft | 293 kts | 130° |
| 2026-05-06 15:44 | 50.12783 | 8.31240 | 9795 ft | 293 kts | 130° |
| 2026-05-06 15:44 | 50.11555 | 8.33777 | 9774 ft | 294 kts | 124° |
| 2026-05-06 15:44 | 50.10720 | 8.36680 | 9764 ft | 292 kts | 106° |
| 2026-05-06 15:44 | 50.10480 | 8.39817 | 9394 ft | 294 kts | 88° |
| 2026-05-06 15:45 | 50.10864 | 8.42969 | 8924 ft | 298 kts | 72° |
| 2026-05-06 15:45 | 50.11583 | 8.45989 | 8576 ft | 296 kts | 69° |
| 2026-05-06 15:45 | 50.12346 | 8.48979 | 8226 ft | 295 kts | 69° |
| 2026-05-06 15:45 | 50.13098 | 8.51956 | 7875 ft | 295 kts | 69° |
| 2026-05-06 15:46 | 50.13833 | 8.54936 | 7566 ft | 293 kts | 70° |
| 2026-05-06 15:46 | 50.14550 | 8.57903 | 7216 ft | 292 kts | 70° |
| 2026-05-06 15:46 | 50.15258 | 8.60868 | 6857 ft | 289 kts | 70° |
| 2026-05-06 15:46 | 50.15957 | 8.63808 | 6791 ft | 290 kts | 70° |
| 2026-05-06 15:47 | 50.16661 | 8.66776 | 6765 ft | 292 kts | 70° |
| 2026-05-06 15:47 | 50.17364 | 8.69736 | 6776 ft | 289 kts | 70° |
| 2026-05-06 15:47 | 50.18058 | 8.72683 | 6787 ft | 288 kts | 70° |
| 2026-05-06 15:47 | 50.18751 | 8.75607 | 6796 ft | 287 kts | 70° |
| 2026-05-06 15:48 | 50.19450 | 8.78551 | 6813 ft | 290 kts | 70° |
| 2026-05-06 15:48 | 50.20149 | 8.81519 | 6802 ft | 290 kts | 71° |
| 2026-05-06 15:48 | 50.20843 | 8.84475 | 6788 ft | 290 kts | 70° |
| 2026-05-06 15:48 | 50.21539 | 8.87438 | 6791 ft | 289 kts | 70° |
| 2026-05-06 15:49 | 50.22226 | 8.90359 | 6535 ft | 286 kts | 71° |
| 2026-05-06 15:49 | 50.22915 | 8.93299 | 6147 ft | 288 kts | 71° |
| 2026-05-06 15:49 | 50.23601 | 8.96233 | 5794 ft | 287 kts | 71° |
| 2026-05-06 15:49 | 50.24284 | 8.99158 | 5459 ft | 285 kts | 71° |
| 2026-05-06 15:50 | 50.24963 | 9.02061 | 5119 ft | 284 kts | 71° |
| 2026-05-06 15:50 | 50.25640 | 9.04960 | 4800 ft | 283 kts | 71° |
| 2026-05-06 15:50 | 50.26311 | 9.07841 | 4545 ft | 279 kts | 71° |
| 2026-05-06 15:50 | 50.26962 | 9.10649 | 4387 ft | 271 kts | 71° |
| 2026-05-06 15:51 | 50.27595 | 9.13388 | 4236 ft | 264 kts | 72° |
| 2026-05-06 15:51 | 50.27833 | 9.16157 | 4018 ft | 252 kts | 104° |
| 2026-05-06 15:51 | 50.27041 | 9.18443 | 3977 ft | 237 kts | 140° |
| 2026-05-06 15:51 | 50.25658 | 9.19754 | 3984 ft | 231 kts | 167° |
| 2026-05-06 15:52 | 50.24093 | 9.20000 | 3992 ft | 225 kts | 191° |
| 2026-05-06 15:52 | 50.22644 | 9.19206 | 3992 ft | 220 kts | 214° |
| 2026-05-06 15:52 | 50.21397 | 9.17811 | 3993 ft | 222 kts | 218° |
| 2026-05-06 15:52 | 50.20164 | 9.16366 | 3996 ft | 220 kts | 218° |
| 2026-05-06 15:53 | 50.18956 | 9.14914 | 3984 ft | 219 kts | 225° |
| 2026-05-06 15:53 | 50.17912 | 9.13179 | 4002 ft | 218 kts | 230° |
| 2026-05-06 15:53 | 50.16927 | 9.11380 | 3994 ft | 218 kts | 232° |
| 2026-05-06 15:53 | 50.16076 | 9.09437 | 3988 ft | 217 kts | 241° |
| 2026-05-06 15:54 | 50.15448 | 9.07309 | 3989 ft | 219 kts | 250° |
| 2026-05-06 15:54 | 50.14987 | 9.05044 | 3997 ft | 218 kts | 252° |
| 2026-05-06 15:54 | 50.14543 | 9.02778 | 3994 ft | 219 kts | 251° |
| 2026-05-06 15:54 | 50.14067 | 9.00511 | 4003 ft | 219 kts | 250° |
| 2026-05-06 15:55 | 50.13565 | 8.98268 | 4006 ft | 218 kts | 249° |
| 2026-05-06 15:55 | 50.13044 | 8.96047 | 4007 ft | 219 kts | 249° |
| 2026-05-06 15:55 | 50.12506 | 8.93817 | 4010 ft | 219 kts | 249° |
| 2026-05-06 15:55 | 50.11963 | 8.91594 | 3992 ft | 219 kts | 248° |
| 2026-05-06 15:56 | 50.11418 | 8.89376 | 3964 ft | 217 kts | 248° |
| 2026-05-06 15:56 | 50.10902 | 8.87278 | 3922 ft | 194 kts | 248° |
| 2026-05-06 15:56 | 50.10447 | 8.85415 | 3953 ft | 179 kts | 248° |
| 2026-05-06 15:56 | 50.10005 | 8.83614 | 3753 ft | 177 kts | 249° |
| 2026-05-06 15:57 | 50.09567 | 8.81820 | 3492 ft | 179 kts | 249° |
| 2026-05-06 15:57 | 50.09129 | 8.80008 | 3263 ft | 177 kts | 247° |
| 2026-05-06 15:57 | 50.08691 | 8.78209 | 2992 ft | 178 kts | 250° |
| 2026-05-06 15:57 | 50.08258 | 8.76409 | 2804 ft | 176 kts | 250° |
| 2026-05-06 15:58 | 50.07832 | 8.74640 | 2624 ft | 167 kts | 251° |
| 2026-05-06 15:58 | 50.07434 | 8.72984 | 2435 ft | 163 kts | 251° |
| 2026-05-06 15:58 | 50.07047 | 8.71379 | 2176 ft | 154 kts | 250° |
| 2026-05-06 15:58 | 50.06681 | 8.69865 | 1930 ft | 146 kts | 251° |
| 2026-05-06 15:59 | 50.06325 | 8.68395 | 1734 ft | 145 kts | 253° |
| 2026-05-06 15:59 | 50.05971 | 8.66932 | 1528 ft | 144 kts | 252° |
| 2026-05-06 15:59 | 50.05631 | 8.65466 | 1332 ft | 144 kts | 253° |
| 2026-05-06 15:59 | 50.05288 | 8.64004 | 1134 ft | 143 kts | 251° |
| 2026-05-06 16:00 | 50.04930 | 8.62553 | 945 ft | 143 kts | 252° |
| 2026-05-06 16:00 | 50.04586 | 8.61102 | 765 ft | 143 kts | 252° |
| 2026-05-06 16:00 | 50.04237 | 8.59622 | 572 ft | 144 kts | 251° |
| 2026-05-06 16:00 | 50.03892 | 8.58180 | 392 ft | 141 kts | 251° |
| 2026-05-06 16:01 | 50.03583 | 8.56879 | 365 ft | 107 kts | 249° |
| 2026-05-06 16:01 | 50.03391 | 8.56080 | 364 ft | 54 kts | 249° |
| 2026-05-06 16:01 | 50.03314 | 8.55697 | 358 ft | 33 kts | 263° |
| 2026-05-06 16:01 | 50.03325 | 8.55403 | 353 ft | 9 kts | 279° |
| 2026-05-06 16:02 | 50.03336 | 8.55296 | 355 ft | 3 kts | 279° |
| 2026-05-06 16:02 | 50.03341 | 8.55247 | 351 ft | 6 kts | 280° |
| 2026-05-06 16:02 | 50.03351 | 8.55160 | 353 ft | 10 kts | 280° |
| 2026-05-06 16:02 | 50.03366 | 8.55034 | 355 ft | 13 kts | 280° |
| 2026-05-06 16:03 | 50.03349 | 8.54874 | 355 ft | 17 kts | 249° |
| 2026-05-06 16:03 | 50.03318 | 8.54747 | 357 ft | 20 kts | 249° |
| 2026-05-06 16:03 | 50.03281 | 8.54588 | 354 ft | 12 kts | 250° |